M I D A S
Marine Information and Data Acquisition System
Tripno 2190 of the Zeeleeuw from 2011-10-03 05:13:32 to 2011-10-03 15:36:37
Back to CruiseResearch ActivitiesStationsMapUnderway DataData graphs

EquipmentUnitsComment
TimeDGPSUTC
LatitudeDGPSDM.mWGS84
LongitudeDGPSDM.mWGS84
TemperatureSBE03/SBE38deg celciusITS90
ConductivitySBE21S/mITS90
SalinitySBE21 Practical Salinity Units
ChlorophylAChelsea fluorimeterg/lCalibrated in Aceton
Missing or incorrect values are displayed as -999
Sea surface data collected by the RV Zeeleeuw from 2011-10-03 05:03:12 to 2011-10-03 15:48:07
                                                                                    Next 1000 lines
Time Latitude Longitude Temperature Conductivity Salinity ChlorophylA
2011-10-03 05:03:21 51°13.636 2°56.018 17.4554 4.316857 32.960866 -3.020363
2011-10-03 05:03:26 51°13.636 2°56.018 17.4569 4.316338 32.959688 -3.020363
2011-10-03 05:03:31 51°13.636 2°56.018 17.4571 4.317168 32.970015 -3.020363
2011-10-03 05:03:36 51°13.636 2°56.018 17.4535 4.317168 32.970015 -3.020363
2011-10-03 05:03:41 51°13.636 2°56.018 17.4483 4.317272 32.97155 -3.020363
2011-10-03 05:03:46 51°13.636 2°56.018 17.4447 4.317686 32.97704 -3.020363
2011-10-03 05:03:50 51°13.636 2°56.018 17.4489 4.318412 32.985836 -3.020363
2011-10-03 05:03:55 51°13.636 2°56.017 17.4443 4.318931 32.994164 -3.020363
2011-10-03 05:04:01 51°13.636 2°56.014 17.4438 4.319138 32.997885 -3.020363
2011-10-03 05:04:06 51°13.637 2°56.011 17.4498 4.319138 32.997885 -3.020363
2011-10-03 05:04:10 51°13.638 2°56.008 17.4545 4.319449 33.002493 -3.020363
2011-10-03 05:04:15 51°13.638 2°56.004 17.4566 4.319657 33.006216 -3.020363
2011-10-03 05:04:21 51°13.64 2°55.997 17.4539 4.320175 33.013898 -3.020363
2011-10-03 05:04:26 51°13.641 2°55.991 17.4667 4.319242 33.007879 -3.020363
2011-10-03 05:04:32 51°13.644 2°55.983 17.4849 4.316442 32.984616 -3.020363
2011-10-03 05:04:38 51°13.646 2°55.975 17.4897 4.316442 32.984616 -3.020363
2011-10-03 05:04:44 51°13.648 2°55.966 17.4912 4.311776 32.944765 -3.020363
2011-10-03 05:04:50 51°13.651 2°55.956 17.4919 4.306591 32.899198 -3.020363
2011-10-03 05:04:55 51°13.653 2°55.947 17.4994 4.302028 32.859602 -3.020363
2011-10-03 05:04:59 51°13.655 2°55.94 17.5221 4.298503 32.82757 -3.020363
2011-10-03 05:05:05 51°13.658 2°55.93 17.5287 4.294355 32.787007 -3.020363
2011-10-03 05:05:10 51°13.66 2°55.921 17.528 4.294355 32.787007 -3.020363
2011-10-03 05:05:15 51°13.662 2°55.911 17.5316 4.290103 32.742998 -3.020363
2011-10-03 05:05:19 51°13.665 2°55.904 17.5426 4.288547 32.723933 -3.020363
2011-10-03 05:05:24 51°13.667 2°55.896 17.5461 4.288236 32.71677 -3.020363
2011-10-03 05:05:30 51°13.67 2°55.885 17.5383 4.28751 32.70543 -3.020363
2011-10-03 05:05:35 51°13.672 2°55.876 17.5409 4.285022 32.674571 -3.020363
2011-10-03 05:05:39 51°13.674 2°55.869 17.5504 4.285022 32.674571 -3.020363
2011-10-03 05:05:44 51°13.677 2°55.86 17.5469 4.282844 32.64831 -3.020363
2011-10-03 05:05:49 51°13.68 2°55.852 17.5426 4.27994 32.618451 -3.020363
2011-10-03 05:05:55 51°13.683 2°55.841 17.5443 4.28077 32.619738 -3.020363
2011-10-03 05:05:59 51°13.686 2°55.834 17.5523 4.278592 32.596715 -3.020363
2011-10-03 05:06:04 51°13.689 2°55.825 17.5441 4.281392 32.61926 -3.020363
2011-10-03 05:06:09 51°13.693 2°55.816 17.5328 4.281392 32.61926 -3.020363
2011-10-03 05:06:14 51°13.697 2°55.807 17.5267 4.280977 32.613806 -3.020363
2011-10-03 05:06:19 51°13.701 2°55.798 17.5269 4.281184 32.612365 -3.020363
2011-10-03 05:06:24 51°13.705 2°55.79 17.5255 4.28274 32.626884 -3.020363
2011-10-03 05:06:29 51°13.71 2°55.781 17.519 4.281703 32.616777 -3.020363
2011-10-03 05:06:34 51°13.714 2°55.772 17.5122 4.28274 32.623677 -3.020363
2011-10-03 05:06:39 51°13.719 2°55.764 17.5002 4.28274 32.623677 -3.020363
2011-10-03 05:06:44 51°13.724 2°55.756 17.4941 4.283155 32.629131 -3.020363
2011-10-03 05:06:49 51°13.73 2°55.748 17.4962 4.282533 32.627686 -3.020363
2011-10-03 05:06:54 51°13.735 2°55.74 17.5029 4.283258 32.638356 -3.020363
2011-10-03 05:06:59 51°13.741 2°55.732 17.4933 4.285747 32.663397 -3.020363
2011-10-03 05:07:04 51°13.746 2°55.724 17.4947 4.286784 32.676083 -3.020363
2011-10-03 05:07:09 51°13.752 2°55.717 17.4907 4.286784 32.676083 -3.020363
2011-10-03 05:07:14 51°13.758 2°55.709 17.4913 4.287095 32.683233 -3.020363
2011-10-03 05:07:19 51°13.764 2°55.702 17.497 4.287718 32.695609 -3.020363
2011-10-03 05:07:24 51°13.77 2°55.695 17.4884 4.287821 32.701642 -3.020363
2011-10-03 05:07:29 51°13.776 2°55.688 17.4943 4.28834 32.707348 -3.020363
2011-10-03 05:07:34 51°13.782 2°55.682 17.4947 4.288547 32.710403 -3.020363
2011-10-03 05:07:39 51°13.789 2°55.675 17.4914 4.288547 32.710403 -3.020363
2011-10-03 05:07:44 51°13.795 2°55.669 17.4945 4.288962 32.716514 -3.020363
2011-10-03 05:07:49 51°13.802 2°55.663 17.4905 4.289688 32.723989 -3.020363
2011-10-03 05:07:55 51°13.81 2°55.656 17.4904 4.290206 32.729697 -3.020363
2011-10-03 05:08:00 51°13.816 2°55.65 17.4882 4.29114 32.738296 -3.020363
2011-10-03 05:08:04 51°13.822 2°55.646 17.4893 4.291866 32.743839 -3.020363
2011-10-03 05:08:09 51°13.829 2°55.64 17.4861 4.291866 32.743839 -3.020363
2011-10-03 05:08:15 51°13.837 2°55.634 17.4865 4.292591 32.750026 -3.020363
2011-10-03 05:08:20 51°13.844 2°55.629 17.4828 4.29311 32.753801 -3.020363
2011-10-03 05:08:24 51°13.85 2°55.626 17.4869 4.292902 32.752033 -3.020363
2011-10-03 05:08:29 51°13.857 2°55.621 17.4844 4.293628 32.759511 -3.020363
2011-10-03 05:08:34 51°13.864 2°55.617 17.4836 4.293317 32.758149 -3.020363
2011-10-03 05:08:40 51°13.873 2°55.613 17.4838 4.293317 32.758149 -3.020363
2011-10-03 05:08:44 51°13.878 2°55.61 17.4826 4.293214 32.758556 -3.020363
2011-10-03 05:08:49 51°13.885 2°55.608 17.4818 4.293214 32.759846 -3.020363
2011-10-03 05:08:54 51°13.891 2°55.606 17.4893 4.291555 32.746346 -3.020363
2011-10-03 05:08:59 51°13.898 2°55.604 17.4851 4.293006 32.759368 -3.020363
2011-10-03 05:09:04 51°13.904 2°55.603 17.4835 4.293836 32.767087 -3.020363
2011-10-03 05:09:09 51°13.91 2°55.603 17.4912 4.293836 32.767087 -3.020363
2011-10-03 05:09:14 51°13.915 2°55.602 17.49 4.293836 32.767732 -3.020363
2011-10-03 05:09:19 51°13.921 2°55.603 17.493 4.294251 32.77256 -3.020363
2011-10-03 05:09:24 51°13.926 2°55.604 17.4884 4.294873 32.777865 -3.020363
2011-10-03 05:09:30 51°13.932 2°55.606 17.4876 4.294873 32.77722 -3.020363
2011-10-03 05:09:34 51°13.936 2°55.607 17.4899 4.29591 32.785416 -3.020363
2011-10-03 05:09:40 51°13.942 2°55.609 17.4883 4.29591 32.785416 -3.020363
2011-10-03 05:09:45 51°13.946 2°55.611 17.4914 4.296221 32.787423 -3.020363
2011-10-03 05:09:50 51°13.95 2°55.614 17.4897 4.296325 32.787016 -3.020363
2011-10-03 05:09:55 51°13.954 2°55.617 17.4936 4.296221 32.785486 -3.020363
2011-10-03 05:10:00 51°13.958 2°55.62 17.4949 4.295391 32.779058 -3.020363
2011-10-03 05:10:05 51°13.961 2°55.623 17.4933 4.294354 32.770216 -3.020363
2011-10-03 05:10:10 51°13.964 2°55.626 17.492 4.294354 32.770216 -3.020363
2011-10-03 05:10:15 51°13.967 2°55.628 17.4919 4.293421 32.761614 -3.020363
2011-10-03 05:10:20 51°13.97 2°55.631 17.4956 4.292903 32.756548 -3.020363
2011-10-03 05:10:25 51°13.973 2°55.634 17.4909 4.292073 32.749476 -3.020363
2011-10-03 05:10:29 51°13.974 2°55.636 17.4926 4.291451 32.743527 -3.020363
2011-10-03 05:10:34 51°13.976 2°55.638 17.4935 4.290829 32.737579 -3.020363
2011-10-03 05:10:39 51°13.978 2°55.64 17.4951 4.290829 32.737579 -3.020363
2011-10-03 05:10:45 51°13.98 2°55.641 17.4951 4.289895 32.728979 -3.020363
2011-10-03 05:10:49 51°13.98 2°55.641 17.499 4.288755 32.719256 -3.020363
2011-10-03 05:10:54 51°13.98 2°55.64 17.4952 4.288133 32.713953 -3.020363
2011-10-03 05:10:59 51°13.981 2°55.637 17.4948 4.287614 32.710178 -3.020363
2011-10-03 05:11:04 51°13.981 2°55.633 17.4968 4.285022 32.688083 -3.020363
2011-10-03 05:11:09 51°13.981 2°55.628 17.4986 4.285022 32.688083 -3.020363
2011-10-03 05:11:13 51°13.981 2°55.623 17.5006 4.285955 32.696037 -3.020363
2011-10-03 05:11:18 51°13.982 2°55.617 17.5096 4.284296 32.681254 -3.020363
2011-10-03 05:11:23 51°13.984 2°55.61 17.504 4.283155 32.67089 -3.020363
2011-10-03 05:11:29 51°13.987 2°55.6 17.5192 4.282741 32.666712 -3.020363
2011-10-03 05:11:33 51°13.989 2°55.594 17.5221 4.281704 32.657233 -3.020363
2011-10-03 05:11:38 51°13.993 2°55.585 17.5087 4.281704 32.657233 -3.020363
2011-10-03 05:11:43 51°13.997 2°55.577 17.506 4.27963 32.63892 -3.020363
2011-10-03 05:11:48 51°14.002 2°55.568 17.5089 4.279215 32.634101 -3.020363
2011-10-03 05:11:53 51°14.007 2°55.558 17.5112 4.279215 32.631531 -3.020363
2011-10-03 05:11:57 51°14.013 2°55.551 17.5042 4.277245 32.611539 -3.020363
2011-10-03 05:12:02 51°14.02 2°55.541 17.5052 4.277141 32.606163 -3.020363
2011-10-03 05:12:07 51°14.027 2°55.533 17.5029 4.277141 32.606163 -3.020363
2011-10-03 05:12:12 51°14.036 2°55.524 17.5008 4.274134 32.579915 -3.020363
2011-10-03 05:12:17 51°14.044 2°55.514 17.5036 4.270194 32.547648 -3.020363
2011-10-03 05:12:21 51°14.051 2°55.507 17.5005 4.267809 32.527984 -3.020363
2011-10-03 05:12:27 51°14.063 2°55.495 17.5054 4.264906 32.503908 -3.020363
2011-10-03 05:12:32 51°14.072 2°55.486 17.5018 4.261795 32.47743 -3.020363
2011-10-03 05:12:36 51°14.08 2°55.478 17.5002 4.261795 32.47743 -3.020363
2011-10-03 05:12:41 51°14.091 2°55.468 17.5031 4.258062 32.446938 -3.020363
2011-10-03 05:12:46 51°14.101 2°55.458 17.5086 4.254641 32.419096 -3.020363
2011-10-03 05:12:51 51°14.111 2°55.449 17.5024 4.24956 32.377139 -3.020363
2011-10-03 05:12:57 51°14.124 2°55.437 17.5067 4.248523 32.368954 -3.020363
2011-10-03 05:13:01 51°14.133 2°55.429 17.5091 4.24479 32.337198 -3.020363
2011-10-03 05:13:06 51°14.144 2°55.419 17.5128 4.24479 32.337198 -3.020363
2011-10-03 05:13:12 51°14.156 2°55.407 17.5199 4.243443 32.326368 -3.020363
2011-10-03 05:13:17 51°14.168 2°55.397 17.5135 4.241265 32.30721 -3.020363
2011-10-03 05:13:21 51°14.176 2°55.388 17.5133 4.243131 32.322449 -3.020363
2011-10-03 05:13:26 51°14.187 2°55.378 17.5119 4.241887 32.311866 -3.020363
2011-10-03 05:13:31 51°14.198 2°55.367 17.5094 4.243857 32.327351 -3.020363
2011-10-03 05:13:37 51°14.212 2°55.355 17.5115 4.243857 32.327351 -3.020363
2011-10-03 05:13:41 51°14.22 2°55.346 17.5093 4.24562 32.340435 -3.020363
2011-10-03 05:13:46 51°14.231 2°55.336 17.5066 4.248108 32.359056 -3.020363
2011-10-03 05:13:51 51°14.242 2°55.325 17.5099 4.24956 32.370131 -3.020363
2011-10-03 05:13:57 51°14.256 2°55.313 17.5092 4.250182 32.375423 -3.020363
2011-10-03 05:14:01 51°14.265 2°55.304 17.5129 4.251426 32.386645 -3.020363
2011-10-03 05:14:06 51°14.275 2°55.293 17.5126 4.251426 32.386645 -3.020363
2011-10-03 05:14:11 51°14.287 2°55.282 17.5099 4.250078 32.375815 -3.020363
2011-10-03 05:14:16 51°14.298 2°55.271 17.5082 4.249871 32.374688 -3.020363
2011-10-03 05:14:21 51°14.309 2°55.259 17.5173 4.250597 32.382137 -3.020363
2011-10-03 05:14:27 51°14.322 2°55.246 17.5092 4.249767 32.37508 -3.020363
2011-10-03 05:14:32 51°14.333 2°55.235 17.5071 4.251011 32.385028 -3.020363
2011-10-03 05:14:37 51°14.344 2°55.224 17.5071 4.251011 32.385028 -3.020363
2011-10-03 05:14:41 51°14.353 2°55.215 17.5076 4.251219 32.386793 -3.020363
2011-10-03 05:14:47 51°14.366 2°55.203 17.503 4.250908 32.384146 -3.020363
2011-10-03 05:14:52 51°14.378 2°55.193 17.5063 4.252048 32.39385 -3.020363
2011-10-03 05:14:57 51°14.389 2°55.182 17.5046 4.255159 32.419679 -3.020363
2011-10-03 05:15:01 51°14.399 2°55.173 17.4999 4.255677 32.424729 -3.020363
2011-10-03 05:15:05 51°14.408 2°55.165 17.5002 4.255677 32.424729 -3.020363
2011-10-03 05:15:12 51°14.423 2°55.15 17.4946 4.255677 32.426005 -3.020363
2011-10-03 05:15:17 51°14.435 2°55.139 17.4929 4.26138 32.474539 -3.020363
2011-10-03 05:15:21 51°14.444 2°55.13 17.489 4.263039 32.4893 -3.020363
2011-10-03 05:15:25 51°14.452 2°55.121 17.4796 4.265009 32.50671 -3.020363
2011-10-03 05:15:32 51°14.468 2°55.106 17.4764 4.267809 32.530545 -3.020363
2011-10-03 05:15:37 51°14.478 2°55.094 17.4689 4.267809 32.530545 -3.020363
2011-10-03 05:15:41 51°14.487 2°55.085 17.4673 4.27009 32.55189 -3.020363
2011-10-03 05:15:46 51°14.498 2°55.074 17.4611 4.269572 32.550038 -3.020363
2011-10-03 05:15:50 51°14.507 2°55.065 17.4476 4.268639 32.544654 -3.020363
2011-10-03 05:15:56 51°14.521 2°55.051 17.4451 4.266461 32.529313 -3.020363
2011-10-03 05:16:01 51°14.532 2°55.039 17.4406 4.264906 32.520551 -3.020363
2011-10-03 05:16:06 51°14.544 2°55.028 17.4335 4.264906 32.520551 -3.020363
2011-10-03 05:16:11 51°14.556 2°55.017 17.4328 4.263558 32.512272 -3.020363
2011-10-03 05:16:16 51°14.569 2°55.005 17.4225 4.258063 32.469946 -3.020363
2011-10-03 05:16:21 51°14.582 2°54.994 17.4167 4.258477 32.480517 -3.020363
2011-10-03 05:16:26 51°14.595 2°54.984 17.4081 4.255471 32.460659 -3.020363
2011-10-03 05:16:31 51°14.608 2°54.973 17.4124 4.253086 32.444819 -3.020363
2011-10-03 05:16:37 51°14.624 2°54.96 17.4002 4.253086 32.444819 -3.020363
2011-10-03 05:16:41 51°14.634 2°54.95 17.3947 4.251738 32.43845 -3.020363
2011-10-03 05:16:46 51°14.647 2°54.938 17.4013 4.250909 32.435859 -3.020363
2011-10-03 05:16:51 51°14.661 2°54.926 17.4101 4.248628 32.421535 -3.020363
2011-10-03 05:16:56 51°14.674 2°54.913 17.4019 4.244584 32.392187 -3.020363
2011-10-03 05:17:01 51°14.688 2°54.9 17.4031 4.242718 32.383308 -3.020363
2011-10-03 05:17:06 51°14.701 2°54.887 17.4109 4.242718 32.383308 -3.020363
2011-10-03 05:17:11 51°14.714 2°54.874 17.4137 4.240748 32.371627 -3.020363
2011-10-03 05:17:16 51°14.728 2°54.861 17.4177 4.238571 32.357537 -3.020363
2011-10-03 05:17:21 51°14.741 2°54.847 17.4255 4.236808 32.344427 -3.020363
2011-10-03 05:17:26 51°14.754 2°54.834 17.4302 4.2422 32.389114 -3.020363
2011-10-03 05:17:31 51°14.768 2°54.82 17.4358 4.246658 32.42777 -3.020363
2011-10-03 05:17:36 51°14.782 2°54.806 17.4452 4.246658 32.42777 -3.020363
2011-10-03 05:17:41 51°14.795 2°54.792 17.4458 4.252983 32.481072 -3.020363
2011-10-03 05:17:46 51°14.809 2°54.778 17.4543 4.261796 32.554976 -3.020363
2011-10-03 05:17:51 51°14.823 2°54.764 17.4609 4.267292 32.599296 -3.020363
2011-10-03 05:17:57 51°14.839 2°54.746 17.465 4.275276 32.663571 -3.020363
2011-10-03 05:18:01 51°14.851 2°54.735 17.4684 4.285126 32.74314 -3.020363
2011-10-03 05:18:06 51°14.865 2°54.72 17.4743 4.285126 32.74314 -3.020363
2011-10-03 05:18:11 51°14.879 2°54.704 17.4795 4.291348 32.790437 -3.020363
2011-10-03 05:18:16 51°14.893 2°54.689 17.4843 4.29757 32.839027 -3.020363
2011-10-03 05:18:21 51°14.907 2°54.674 17.491 4.30431 32.892044 -3.020363
2011-10-03 05:18:26 51°14.922 2°54.659 17.4947 4.316131 32.987162 -3.020363
2011-10-03 05:18:31 51°14.936 2°54.644 17.4995 4.325153 33.059676 -3.020363
2011-10-03 05:18:36 51°14.951 2°54.629 17.5046 4.325153 33.059676 -3.020363
2011-10-03 05:18:41 51°14.966 2°54.614 17.5084 4.33096 33.104728 -3.020363
2011-10-03 05:18:46 51°14.98 2°54.599 17.515 4.333553 33.121657 -3.020363
2011-10-03 05:18:51 51°14.995 2°54.584 17.5214 4.33936 33.16605 -3.020363
2011-10-03 05:18:57 51°15.012 2°54.566 17.5255 4.345375 33.212213 -3.020363
2011-10-03 05:19:01 51°15.024 2°54.554 17.5287 4.352531 33.268779 -3.020363
2011-10-03 05:19:06 51°15.038 2°54.537 17.5334 4.352531 33.268779 -3.020363
2011-10-03 05:19:11 51°15.052 2°54.521 17.5363 4.361035 33.33687 -3.020363
2011-10-03 05:19:16 51°15.065 2°54.503 17.5399 4.360516 33.327841 -3.020363
2011-10-03 05:19:21 51°15.078 2°54.486 17.5431 4.368709 33.393927 -3.020363
2011-10-03 05:19:26 51°15.092 2°54.468 17.5449 4.372131 33.417919 -3.020363
2011-10-03 05:19:31 51°15.105 2°54.45 17.5488 4.376176 33.447885 -3.020363
2011-10-03 05:19:36 51°15.117 2°54.432 17.5516 4.376176 33.447885 -3.020363
2011-10-03 05:19:41 51°15.13 2°54.414 17.5557 4.381362 33.48826 -3.020363
2011-10-03 05:19:46 51°15.143 2°54.396 17.5582 4.388518 33.544822 -3.020363
2011-10-03 05:19:51 51°15.156 2°54.378 17.5597 4.391007 33.562801 -3.020363
2011-10-03 05:19:56 51°15.17 2°54.36 17.563 4.395571 33.598515 -3.020363
2011-10-03 05:20:01 51°15.183 2°54.342 17.5661 4.399823 33.631568 -3.020363
2011-10-03 05:20:06 51°15.196 2°54.325 17.5659 4.399823 33.631568 -3.020363
2011-10-03 05:20:11 51°15.21 2°54.308 17.5687 4.398578 33.617618 -3.020363
2011-10-03 05:20:16 51°15.224 2°54.291 17.5691 4.405631 33.674613 -3.020363
2011-10-03 05:20:21 51°15.238 2°54.275 17.5731 4.40812 33.692585 -3.020363
2011-10-03 05:20:26 51°15.253 2°54.26 17.5724 4.406357 33.674858 -3.020363
2011-10-03 05:20:31 51°15.267 2°54.244 17.5733 4.410713 33.709454 -3.020363
2011-10-03 05:20:36 51°15.282 2°54.229 17.5761 4.410713 33.709454 -3.020363
2011-10-03 05:20:41 51°15.297 2°54.215 17.5796 4.413202 33.728086 -3.020363
2011-10-03 05:20:46 51°15.312 2°54.199 17.5805 4.414965 33.741173 -3.020363
2011-10-03 05:20:51 51°15.326 2°54.184 17.5844 4.41621 33.749824 -3.020363
2011-10-03 05:20:56 51°15.34 2°54.168 17.5855 4.419218 33.773553 -3.020363
2011-10-03 05:21:01 51°15.354 2°54.152 17.5879 4.42067 33.784642 -3.020363
2011-10-03 05:21:06 51°15.368 2°54.135 17.5916 4.42067 33.784642 -3.020363
2011-10-03 05:21:11 51°15.382 2°54.119 17.5923 4.422018 33.794179 -3.020363
2011-10-03 05:21:16 51°15.396 2°54.102 17.5939 4.42233 33.795511 -3.020363
2011-10-03 05:21:21 51°15.41 2°54.086 17.5941 4.425856 33.823674 -3.020363
2011-10-03 05:21:26 51°15.424 2°54.069 17.5953 4.425337 33.816579 -3.020363
2011-10-03 05:21:31 51°15.438 2°54.052 17.597 4.42959 33.850949 -3.020363
2011-10-03 05:21:36 51°15.452 2°54.036 17.6002 4.42959 33.850949 -3.020363
2011-10-03 05:21:41 51°15.465 2°54.019 17.6001 4.430627 33.857157 -3.020363
2011-10-03 05:21:46 51°15.479 2°54.002 17.6 4.431561 33.863143 -3.020363
2011-10-03 05:21:51 51°15.493 2°53.985 17.6001 4.432598 33.870016 -3.020363
2011-10-03 05:21:56 51°15.507 2°53.968 17.6017 4.433635 33.87822 -3.020363
2011-10-03 05:22:01 51°15.52 2°53.951 17.6019 4.43405 33.880436 -3.020363
2011-10-03 05:22:06 51°15.534 2°53.934 17.6034 4.43405 33.880436 -3.020363
2011-10-03 05:22:11 51°15.548 2°53.918 17.6041 4.433946 33.877552 -3.020363
2011-10-03 05:22:16 51°15.561 2°53.9 17.6044 4.433116 33.869126 -3.020363
2011-10-03 05:22:21 51°15.575 2°53.883 17.6041 4.434361 33.878436 -3.020363
2011-10-03 05:22:26 51°15.588 2°53.866 17.6036 4.434257 33.876884 -3.020363
2011-10-03 05:22:31 51°15.601 2°53.847 17.6051 4.435087 33.883313 -3.020363
2011-10-03 05:22:36 51°15.613 2°53.828 17.6044 4.435087 33.883313 -3.020363
2011-10-03 05:22:41 51°15.625 2°53.81 17.604 4.436228 33.891736 -3.020363
2011-10-03 05:22:46 51°15.637 2°53.79 17.6022 4.43685 33.896391 -3.020363
2011-10-03 05:22:51 51°15.649 2°53.771 17.6019 4.439029 33.914349 -3.020363
2011-10-03 05:22:56 51°15.661 2°53.752 17.6012 4.438406 33.909028 -3.020363
2011-10-03 05:23:01 51°15.673 2°53.732 17.6012 4.438199 33.907254 -3.020363
2011-10-03 05:23:06 51°15.685 2°53.713 17.6035 4.438199 33.907254 -3.020363
2011-10-03 05:23:11 51°15.697 2°53.694 17.6001 4.439029 33.913683 -3.020363
2011-10-03 05:23:16 51°15.709 2°53.675 17.5986 4.43934 33.916343 -3.020363
2011-10-03 05:23:21 51°15.722 2°53.657 17.5958 4.437784 33.903707 -3.020363
2011-10-03 05:23:26 51°15.735 2°53.639 17.5962 4.437577 33.902599 -3.020363
2011-10-03 05:23:31 51°15.748 2°53.622 17.5945 4.438199 33.90792 -3.020363
2011-10-03 05:23:36 51°15.761 2°53.604 17.5937 4.438199 33.90792 -3.020363
2011-10-03 05:23:41 51°15.775 2°53.587 17.5912 4.436332 33.891957 -3.020363
2011-10-03 05:23:46 51°15.789 2°53.571 17.589 4.438614 33.912134 -3.020363
2011-10-03 05:23:51 51°15.803 2°53.555 17.589 4.440792 33.931426 -3.020363
2011-10-03 05:23:56 51°15.817 2°53.54 17.5874 4.439962 33.924997 -3.020363
2011-10-03 05:24:01 51°15.832 2°53.525 17.5887 4.437369 33.904156 -3.020363
2011-10-03 05:24:06 51°15.847 2°53.511 17.5851 4.437369 33.904156 -3.020363
2011-10-03 05:24:11 51°15.862 2°53.497 17.5809 4.43851 33.914579 -3.020363
2011-10-03 05:24:16 51°15.877 2°53.483 17.5804 4.440377 33.931879 -3.020363
2011-10-03 05:24:21 51°15.893 2°53.47 17.5771 4.439859 33.927443 -3.020363
2011-10-03 05:24:26 51°15.908 2°53.457 17.5771 4.435191 33.889527 -3.020363
2011-10-03 05:24:31 51°15.924 2°53.445 17.5755 4.441 33.939869 -3.020363
2011-10-03 05:24:36 51°15.94 2°53.433 17.5732 4.441 33.939869 -3.020363
2011-10-03 05:24:41 51°15.956 2°53.421 17.5746 4.439962 33.933665 -3.020363
2011-10-03 05:24:46 51°15.972 2°53.41 17.5686 4.439444 33.930563 -3.020363
2011-10-03 05:24:51 51°15.988 2°53.398 17.5686 4.440792 33.944099 -3.020363
2011-10-03 05:24:56 51°16.004 2°53.387 17.5685 4.440274 33.940996 -3.020363
2011-10-03 05:25:01 51°16.02 2°53.375 17.568 4.439755 33.938561 -3.020363
2011-10-03 05:25:06 51°16.036 2°53.364 17.5662 4.439755 33.938561 -3.020363
2011-10-03 05:25:11 51°16.052 2°53.352 17.565 4.439236 33.935458 -3.020363
2011-10-03 05:25:16 51°16.068 2°53.341 17.5648 4.440481 33.94811 -3.020363
2011-10-03 05:25:21 51°16.084 2°53.329 17.5659 4.439237 33.938795 -3.020363
2011-10-03 05:25:26 51°16.1 2°53.318 17.5651 4.437992 33.929479 -3.020363
2011-10-03 05:25:31 51°16.117 2°53.308 17.5668 4.438407 33.934364 -3.020363
2011-10-03 05:25:36 51°16.134 2°53.299 17.5655 4.438407 33.934364 -3.020363
2011-10-03 05:25:41 51°16.151 2°53.29 17.5655 4.436955 33.923273 -3.020363
2011-10-03 05:25:46 51°16.168 2°53.281 17.5661 4.441726 33.964771 -3.020363
2011-10-03 05:25:51 51°16.185 2°53.272 17.5682 4.442452 33.971653 -3.020363
2011-10-03 05:25:56 51°16.202 2°53.264 17.5703 4.44266 33.974096 -3.020363
2011-10-03 05:26:01 51°16.219 2°53.256 17.5688 4.443282 33.978755 -3.020363
2011-10-03 05:26:06 51°16.237 2°53.25 17.5682 4.443282 33.978755 -3.020363
2011-10-03 05:26:11 51°16.254 2°53.243 17.5685 4.442452 33.972321 -3.020363
2011-10-03 05:26:16 51°16.273 2°53.237 17.5708 4.442971 33.97676 -3.020363
2011-10-03 05:26:21 51°16.29 2°53.231 17.5721 4.442452 33.971653 -3.020363
2011-10-03 05:26:26 51°16.308 2°53.224 17.5719 4.443489 33.979862 -3.020363
2011-10-03 05:26:31 51°16.325 2°53.216 17.5743 4.443489 33.979194 -3.020363
2011-10-03 05:26:36 51°16.342 2°53.207 17.5759 4.443489 33.979194 -3.020363
2011-10-03 05:26:41 51°16.359 2°53.198 17.5762 4.444319 33.986296 -3.020363
2011-10-03 05:26:46 51°16.376 2°53.188 17.5772 4.444527 33.988072 -3.020363
2011-10-03 05:26:51 51°16.393 2°53.18 17.5787 4.444734 33.989179 -3.020363
2011-10-03 05:26:56 51°16.409 2°53.17 17.5811 4.445253 33.993618 -3.020363
2011-10-03 05:27:01 51°16.426 2°53.16 17.5828 4.445668 33.996501 -3.020363
2011-10-03 05:27:06 51°16.442 2°53.149 17.5838 4.445668 33.996501 -3.020363
2011-10-03 05:27:11 51°16.458 2°53.137 17.5859 4.445668 33.995164 -3.020363
2011-10-03 05:27:16 51°16.475 2°53.126 17.5871 4.445979 33.99649 -3.020363
2011-10-03 05:27:21 51°16.491 2°53.114 17.59 4.445253 33.989607 -3.020363
2011-10-03 05:27:26 51°16.506 2°53.102 17.5914 4.446705 34.000698 -3.020363
2011-10-03 05:27:31 51°16.522 2°53.089 17.5935 4.447327 34.004019 -3.020363
2011-10-03 05:27:36 51°16.538 2°53.077 17.5968 4.447327 34.004019 -3.020363
2011-10-03 05:27:41 51°16.554 2°53.065 17.5986 4.447638 34.005345 -3.020363
2011-10-03 05:27:46 51°16.57 2°53.052 17.6002 4.448364 34.010222 -3.020363
2011-10-03 05:27:51 51°16.586 2°53.04 17.602 4.446808 33.994902 -3.020363
2011-10-03 05:27:56 51°16.601 2°53.027 17.6035 4.449609 34.01753 -3.020363
2011-10-03 05:28:01 51°16.617 2°53.013 17.6043 4.450231 34.020849 -3.020363
2011-10-03 05:28:06 51°16.633 2°53.001 17.6049 4.450231 34.020849 -3.020363
2011-10-03 05:28:11 51°16.649 2°52.989 17.6062 4.450439 34.020618 -3.020363
2011-10-03 05:28:16 51°16.665 2°52.977 17.6063 4.451476 34.027488 -3.020363
2011-10-03 05:28:21 51°16.681 2°52.966 17.6064 4.452513 34.034356 -3.020363
2011-10-03 05:28:26 51°16.697 2°52.954 17.6075 4.453758 34.043 -3.020363
2011-10-03 05:28:31 51°16.713 2°52.944 17.6074 4.453239 34.036556 -3.020363
2011-10-03 05:28:36 51°16.73 2°52.934 17.6073 4.453239 34.036556 -3.020363
2011-10-03 05:28:41 51°16.747 2°52.925 17.6072 4.45438 34.04498 -3.020363
2011-10-03 05:28:45 51°16.761 2°52.918 17.6062 4.45521 34.05141 -3.020363
2011-10-03 05:28:51 51°16.781 2°52.908 17.6065 4.455625 34.053622 -3.020363
2011-10-03 05:28:56 51°16.798 2°52.899 17.6063 4.456144 34.05739 -3.020363
2011-10-03 05:29:01 51°16.815 2°52.889 17.6067 4.456662 34.061158 -3.020363
2011-10-03 05:29:06 51°16.832 2°52.88 17.6051 4.456662 34.061158 -3.020363
2011-10-03 05:29:11 51°16.849 2°52.871 17.6047 4.4577 34.069363 -3.020363
2011-10-03 05:29:16 51°16.866 2°52.863 17.604 4.455625 34.051615 -3.020363
2011-10-03 05:29:21 51°16.883 2°52.854 17.6028 4.456455 34.058714 -3.020363
2011-10-03 05:29:26 51°16.901 2°52.847 17.6005 4.457181 34.064925 -3.020363
2011-10-03 05:29:31 51°16.918 2°52.839 17.5982 4.45687 34.062263 -3.020363
2011-10-03 05:29:36 51°16.935 2°52.831 17.5963 4.45687 34.062263 -3.020363
2011-10-03 05:29:41 51°16.952 2°52.821 17.5935 4.457492 34.068257 -3.020363
2011-10-03 05:29:46 51°16.969 2°52.811 17.5915 4.4577 34.070032 -3.020363
2011-10-03 05:29:51 51°16.985 2°52.801 17.5873 4.458011 34.073364 -3.020363
2011-10-03 05:29:56 51°17.002 2°52.79 17.5857 4.458737 34.080246 -3.020363
2011-10-03 05:30:01 51°17.018 2°52.778 17.5832 4.458322 34.078704 -3.020363
2011-10-03 05:30:06 51°17.034 2°52.765 17.5794 4.458322 34.078704 -3.020363
2011-10-03 05:30:11 51°17.049 2°52.751 17.5786 4.458633 34.083376 -3.020363
2011-10-03 05:30:16 51°17.064 2°52.737 17.576 4.458737 34.085603 -3.020363
2011-10-03 05:30:21 51°17.08 2°52.724 17.5752 4.459048 34.090276 -3.020363
2011-10-03 05:30:26 51°17.096 2°52.711 17.5717 4.459567 34.098065 -3.020363
2011-10-03 05:30:31 51°17.112 2°52.699 17.5667 4.459567 34.100076 -3.020363
2011-10-03 05:30:36 51°17.128 2°52.687 17.5652 4.459567 34.100076 -3.020363
2011-10-03 05:30:41 51°17.144 2°52.674 17.5619 4.459256 34.100093 -3.020363
2011-10-03 05:30:45 51°17.157 2°52.665 17.5613 4.460086 34.109208 -3.020363
2011-10-03 05:30:51 51°17.177 2°52.653 17.5565 4.460916 34.118325 -3.020363
2011-10-03 05:30:56 51°17.194 2°52.643 17.5535 4.459878 34.112127 -3.020363
2011-10-03 05:31:01 51°17.211 2°52.632 17.5543 4.46019 34.116803 -3.020363
2011-10-03 05:31:06 51°17.228 2°52.623 17.5531 4.46019 34.116803 -3.020363
2011-10-03 05:31:11 51°17.245 2°52.614 17.5522 4.460293 34.121046 -3.020363
2011-10-03 05:31:16 51°17.263 2°52.608 17.547 4.459982 34.119723 -3.020363
2011-10-03 05:31:21 51°17.281 2°52.602 17.5458 4.459879 34.121519 -3.020363
2011-10-03 05:31:26 51°17.299 2°52.598 17.5437 4.459671 34.122427 -3.020363
2011-10-03 05:31:31 51°17.317 2°52.593 17.5431 4.459464 34.123335 -3.020363
2011-10-03 05:31:36 51°17.335 2°52.59 17.5396 4.459464 34.123335 -3.020363
2011-10-03 05:31:41 51°17.353 2°52.587 17.5378 4.45936 34.123789 -3.020363
2011-10-03 05:31:46 51°17.371 2°52.586 17.5363 4.459153 34.123355 -3.020363
2011-10-03 05:31:51 51°17.39 2°52.585 17.5352 4.459256 34.126258 -3.020363
2011-10-03 05:31:56 51°17.408 2°52.586 17.5329 4.458738 34.123829 -3.020363
2011-10-03 05:32:01 51°17.427 2°52.585 17.5312 4.458634 34.124283 -3.020363
2011-10-03 05:32:06 51°17.445 2°52.584 17.5307 4.458634 34.124283 -3.020363
2011-10-03 05:32:11 51°17.464 2°52.586 17.5283 4.458219 34.122743 -3.020363
2011-10-03 05:32:16 51°17.483 2°52.587 17.5264 4.458427 34.127206 -3.020363
2011-10-03 05:32:21 51°17.501 2°52.588 17.526 4.458427 34.12855 -3.020363
2011-10-03 05:32:26 51°17.52 2°52.59 17.5239 4.458219 34.129459 -3.020363
2011-10-03 05:32:31 51°17.538 2°52.591 17.5237 4.459049 34.137915 -3.020363
2011-10-03 05:32:36 51°17.557 2°52.594 17.5215 4.459049 34.137915 -3.020363
2011-10-03 05:32:41 51°17.575 2°52.596 17.5216 4.45853 34.134814 -3.020363
2011-10-03 05:32:45 51°17.59 2°52.599 17.52 4.457701 34.129045 -3.020363
2011-10-03 05:32:51 51°17.613 2°52.604 17.5214 4.457389 34.128394 -3.020363
2011-10-03 05:32:56 51°17.631 2°52.608 17.5209 4.462265 34.17153 -3.020363
2011-10-03 05:33:01 51°17.65 2°52.612 17.5215 4.462161 34.172659 -3.020363
2011-10-03 05:33:05 51°17.665 2°52.614 17.5225 4.462161 34.172659 -3.020363
2011-10-03 05:33:11 51°17.687 2°52.62 17.52 4.462057 34.173115 -3.020363
2011-10-03 05:33:16 51°17.706 2°52.623 17.5218 4.462057 34.173115 -3.020363
2011-10-03 05:33:21 51°17.725 2°52.626 17.5227 4.462057 34.174461 -3.020363
2011-10-03 05:33:26 51°17.743 2°52.629 17.5237 4.461954 34.174245 -3.020363
2011-10-03 05:33:31 51°17.762 2°52.633 17.5234 4.461954 34.174918 -3.020363
2011-10-03 05:33:36 51°17.78 2°52.636 17.5288 4.461954 34.174918 -3.020363
2011-10-03 05:33:41 51°17.799 2°52.638 17.5315 4.461954 34.174918 -3.020363
2011-10-03 05:33:46 51°17.818 2°52.641 17.5362 4.462057 34.17648 -3.020363
2011-10-03 05:33:51 51°17.836 2°52.643 17.5411 4.462057 34.17648 -3.020363
2011-10-03 05:33:56 51°17.855 2°52.646 17.5432 4.462057 34.17648 -3.020363
2011-10-03 05:34:01 51°17.873 2°52.647 17.5474 4.462161 34.176024 -3.020363
2011-10-03 05:34:06 51°17.892 2°52.65 17.5543 4.462161 34.176024 -3.020363
2011-10-03 05:34:11 51°17.91 2°52.652 17.5599 4.462472 34.175327 -3.020363
2011-10-03 05:34:16 51°17.929 2°52.655 17.5616 4.463095 34.175952 -3.020363
2011-10-03 05:34:21 51°17.948 2°52.658 17.5695 4.463821 34.177467 -3.020363
2011-10-03 05:34:26 51°17.967 2°52.662 17.5686 4.464443 34.18011 -3.020363
2011-10-03 05:34:31 51°17.985 2°52.667 17.5741 4.464754 34.180087 -3.020363
2011-10-03 05:34:36 51°18.004 2°52.672 17.5756 4.464754 34.180087 -3.020363
2011-10-03 05:34:41 51°18.022 2°52.676 17.5723 4.465065 34.178718 -3.020363
2011-10-03 05:34:46 51°18.041 2°52.682 17.5818 4.464858 34.172233 -3.020363
2011-10-03 05:34:51 51°18.059 2°52.687 17.5814 4.46465 34.166422 -3.020363
2011-10-03 05:34:56 51°18.078 2°52.693 17.581 4.464443 34.159941 -3.020363
2011-10-03 05:35:01 51°18.096 2°52.7 17.5806 4.464546 34.156798 -3.020363
2011-10-03 05:35:05 51°18.111 2°52.707 17.5861 4.464546 34.156798 -3.020363
2011-10-03 05:35:11 51°18.132 2°52.719 17.5836 4.46465 34.155 -3.020363
2011-10-03 05:35:16 51°18.148 2°52.732 17.583 4.465169 34.157427 -3.020363
2011-10-03 05:35:21 51°18.165 2°52.746 17.5867 4.465687 34.159854 -3.020363
2011-10-03 05:35:25 51°18.178 2°52.758 17.5871 4.465895 34.158944 -3.020363
2011-10-03 05:35:31 51°18.197 2°52.778 17.5881 4.466413 34.16137 -3.020363
2011-10-03 05:35:36 51°18.212 2°52.796 17.5838 4.466413 34.16137 -3.020363
2011-10-03 05:35:41 51°18.226 2°52.815 17.5857 4.467036 34.165356 -3.020363
2011-10-03 05:35:46 51°18.24 2°52.835 17.5845 4.467347 34.166006 -3.020363
2011-10-03 05:35:51 51°18.254 2°52.855 17.5855 4.467762 34.168216 -3.020363
2011-10-03 05:35:56 51°18.267 2°52.876 17.5838 4.468177 34.171096 -3.020363
2011-10-03 05:36:01 51°18.28 2°52.899 17.5822 4.468592 34.173977 -3.020363
2011-10-03 05:36:06 51°18.293 2°52.921 17.5817 4.468592 34.173977 -3.020363
2011-10-03 05:36:11 51°18.306 2°52.943 17.5829 4.468799 34.175082 -3.020363
2011-10-03 05:36:16 51°18.318 2°52.966 17.5861 4.46911 34.177746 -3.020363
2011-10-03 05:36:21 51°18.331 2°52.988 17.5857 4.469214 34.179306 -3.020363
2011-10-03 05:36:26 51°18.344 2°53.011 17.5819 4.469318 34.179523 -3.020363
2011-10-03 05:36:31 51°18.356 2°53.034 17.5871 4.469421 34.180411 -3.020363
2011-10-03 05:36:36 51°18.369 2°53.057 17.5831 4.469421 34.180411 -3.020363
2011-10-03 05:36:41 51°18.381 2°53.079 17.5776 4.469525 34.181971 -3.020363
2011-10-03 05:36:46 51°18.393 2°53.102 17.5814 4.469525 34.182642 -3.020363
2011-10-03 05:36:51 51°18.406 2°53.125 17.5728 4.469629 34.183531 -3.020363
2011-10-03 05:36:56 51°18.418 2°53.148 17.5762 4.469629 34.182859 -3.020363
2011-10-03 05:37:01 51°18.431 2°53.171 17.5697 4.469733 34.184419 -3.020363
2011-10-03 05:37:06 51°18.443 2°53.193 17.5719 4.469733 34.184419 -3.020363
2011-10-03 05:37:11 51°18.455 2°53.216 17.5609 4.469733 34.184419 -3.020363
2011-10-03 05:37:16 51°18.468 2°53.239 17.5601 4.469733 34.185091 -3.020363
2011-10-03 05:37:21 51°18.48 2°53.262 17.5623 4.469629 34.185546 -3.020363
2011-10-03 05:37:25 51°18.49 2°53.28 17.5603 4.469525 34.186002 -3.020363
2011-10-03 05:37:31 51°18.504 2°53.308 17.5533 4.469318 34.186242 -3.020363
2011-10-03 05:37:36 51°18.517 2°53.33 17.5488 4.469318 34.186242 -3.020363
2011-10-03 05:37:41 51°18.53 2°53.353 17.5436 4.46911 34.187153 -3.020363
2011-10-03 05:37:46 51°18.543 2°53.375 17.5399 4.468903 34.187393 -3.020363
2011-10-03 05:37:51 51°18.556 2°53.397 17.5398 4.468592 34.186744 -3.020363
2011-10-03 05:37:56 51°18.569 2°53.418 17.5391 4.468281 34.186768 -3.020363
2011-10-03 05:38:01 51°18.582 2°53.439 17.5353 4.468073 34.185663 -3.020363
2011-10-03 05:38:06 51°18.596 2°53.46 17.5263 4.468073 34.185663 -3.020363
2011-10-03 05:38:11 51°18.61 2°53.482 17.5273 4.467658 34.186815 -3.020363
2011-10-03 05:38:16 51°18.623 2°53.503 17.5257 4.467347 34.187511 -3.020363
2011-10-03 05:38:21 51°18.637 2°53.524 17.5206 4.466725 34.186214 -3.020363
2011-10-03 05:38:26 51°18.65 2°53.545 17.5208 4.466414 34.186238 -3.020363
2011-10-03 05:38:31 51°18.664 2°53.566 17.5154 4.465999 34.185373 -3.020363
2011-10-03 05:38:36 51°18.677 2°53.586 17.5052 4.465999 34.185373 -3.020363
2011-10-03 05:38:41 51°18.691 2°53.607 17.5084 4.465688 34.184724 -3.020363
2011-10-03 05:38:46 51°18.705 2°53.627 17.5065 4.465273 34.185205 -3.020363
2011-10-03 05:38:51 51°18.718 2°53.648 17.5018 4.46465 34.182561 -3.020363
2011-10-03 05:38:56 51°18.732 2°53.669 17.5023 4.463924 34.178356 -3.020363
2011-10-03 05:39:01 51°18.744 2°53.691 17.4978 4.46268 34.171723 -3.020363
2011-10-03 05:39:06 51°18.756 2°53.714 17.5014 4.46268 34.171723 -3.020363
2011-10-03 05:39:11 51°18.769 2°53.736 17.4999 4.461228 34.162637 -3.020363
2011-10-03 05:39:16 51°18.781 2°53.758 17.5084 4.459568 34.151772 -3.020363
2011-10-03 05:39:21 51°18.794 2°53.781 17.4995 4.457597 34.136893 -3.020363
2011-10-03 05:39:26 51°18.807 2°53.802 17.4996 4.455834 34.124464 -3.020363
2011-10-03 05:39:31 51°18.82 2°53.824 17.5039 4.453967 34.110474 -3.020363
2011-10-03 05:39:36 51°18.833 2°53.846 17.5005 4.453967 34.110474 -3.020363
2011-10-03 05:39:41 51°18.846 2°53.868 17.5038 4.451996 34.094922 -3.020363
2011-10-03 05:39:46 51°18.859 2°53.889 17.5026 4.450025 34.07937 -3.020363
2011-10-03 05:39:51 51°18.872 2°53.912 17.5084 4.448365 34.065144 -3.020363
2011-10-03 05:39:56 51°18.884 2°53.934 17.509 4.446291 34.048033 -3.020363
2011-10-03 05:40:01 51°18.897 2°53.956 17.5089 4.444735 34.035368 -3.020363
2011-10-03 05:40:06 51°18.909 2°53.978 17.513 4.444735 34.035368 -3.020363
2011-10-03 05:40:11 51°18.921 2°54.001 17.5133 4.44349 34.0247 -3.020363
2011-10-03 05:40:16 51°18.933 2°54.024 17.5117 4.442349 34.014921 -3.020363
2011-10-03 05:40:21 51°18.946 2°54.046 17.5164 4.441312 34.005363 -3.020363
2011-10-03 05:40:26 51°18.958 2°54.069 17.514 4.440275 33.995804 -3.020363
2011-10-03 05:40:31 51°18.971 2°54.091 17.5155 4.439237 33.985578 -3.020363
2011-10-03 05:40:36 51°18.983 2°54.114 17.5184 4.439237 33.985578 -3.020363
2011-10-03 05:40:41 51°18.996 2°54.135 17.5168 4.437785 33.971797 -3.020363
2011-10-03 05:40:46 51°19.008 2°54.158 17.5214 4.435607 33.951131 -3.020363
2011-10-03 05:40:51 51°19.021 2°54.18 17.5224 4.433429 33.931136 -3.020363
2011-10-03 05:40:56 51°19.033 2°54.202 17.522 4.431769 33.916254 -3.020363
2011-10-03 05:41:01 51°19.045 2°54.225 17.524 4.429902 33.899597 -3.020363
2011-10-03 05:41:06 51°19.058 2°54.247 17.521 4.429902 33.899597 -3.020363
2011-10-03 05:41:11 51°19.071 2°54.269 17.5231 4.428242 33.884051 -3.020363
2011-10-03 05:41:16 51°19.083 2°54.291 17.5237 4.426479 33.867619 -3.020363
2011-10-03 05:41:21 51°19.096 2°54.312 17.5262 4.42482 33.852745 -3.020363
2011-10-03 05:41:26 51°19.109 2°54.334 17.5217 4.422952 33.835429 -3.020363
2011-10-03 05:41:31 51°19.122 2°54.355 17.5265 4.421708 33.824775 -3.020363
2011-10-03 05:41:36 51°19.136 2°54.376 17.5247 4.421708 33.824775 -3.020363
2011-10-03 05:41:41 51°19.149 2°54.396 17.5238 4.420774 33.815453 -3.020363
2011-10-03 05:41:45 51°19.16 2°54.413 17.5244 4.419633 33.805688 -3.020363
2011-10-03 05:41:51 51°19.176 2°54.438 17.5236 4.418492 33.795258 -3.020363
2011-10-03 05:41:56 51°19.189 2°54.459 17.5236 4.417663 33.786827 -3.020363
2011-10-03 05:42:01 51°19.202 2°54.48 17.5214 4.416625 33.777287 -3.020363
2011-10-03 05:42:06 51°19.215 2°54.501 17.521 4.416625 33.777287 -3.020363
2011-10-03 05:42:11 51°19.229 2°54.522 17.5228 4.415692 33.769299 -3.020363
2011-10-03 05:42:16 51°19.242 2°54.543 17.5215 4.414655 33.760424 -3.020363
2011-10-03 05:42:21 51°19.255 2°54.564 17.5198 4.41341 33.749775 -3.020363
2011-10-03 05:42:26 51°19.268 2°54.586 17.5179 4.412373 33.740901 -3.020363
2011-10-03 05:42:31 51°19.281 2°54.607 17.517 4.411439 33.732914 -3.020363
2011-10-03 05:42:36 51°19.295 2°54.628 17.5122 4.411439 33.732914 -3.020363
2011-10-03 05:42:41 51°19.308 2°54.649 17.5143 4.41061 33.726479 -3.020363
2011-10-03 05:42:46 51°19.321 2°54.671 17.5142 4.409469 33.716719 -3.020363
2011-10-03 05:42:51 51°19.334 2°54.692 17.5113 4.408743 33.711171 -3.020363
2011-10-03 05:42:56 51°19.348 2°54.713 17.5072 4.407913 33.7054 -3.020363
2011-10-03 05:43:01 51°19.361 2°54.734 17.5049 4.40698 33.698078 -3.020363
2011-10-03 05:43:06 51°19.374 2°54.756 17.5045 4.40698 33.698078 -3.020363
2011-10-03 05:43:11 51°19.387 2°54.777 17.5068 4.405839 33.689644 -3.020363
2011-10-03 05:43:16 51°19.4 2°54.799 17.511 4.404594 33.67966 -3.020363
2011-10-03 05:43:21 51°19.412 2°54.821 17.5139 4.403349 33.670339 -3.020363
2011-10-03 05:43:26 51°19.425 2°54.843 17.5137 4.402105 33.66168 -3.020363
2011-10-03 05:43:31 51°19.438 2°54.866 17.5174 4.400549 33.653009 -3.020363
2011-10-03 05:43:36 51°19.45 2°54.888 17.5212 4.400549 33.653009 -3.020363
2011-10-03 05:43:41 51°19.462 2°54.912 17.5123 4.399512 33.647449 -3.020363
2011-10-03 05:43:46 51°19.475 2°54.934 17.5069 4.39889 33.64345 -3.020363
2011-10-03 05:43:51 51°19.487 2°54.957 17.5006 4.398786 33.642562 -3.020363
2011-10-03 05:43:56 51°19.499 2°54.979 17.5018 4.39889 33.642125 -3.020363
2011-10-03 05:44:01 51°19.512 2°55.002 17.4983 4.39889 33.6408 -3.020363
2011-10-03 05:44:06 51°19.524 2°55.025 17.4962 4.39889 33.6408 -3.020363
2011-10-03 05:44:11 51°19.536 2°55.047 17.4961 4.398993 33.6397 -3.020363
2011-10-03 05:44:16 51°19.549 2°55.07 17.497 4.398786 33.638588 -3.020363
2011-10-03 05:44:21 51°19.562 2°55.091 17.4957 4.397956 33.634139 -3.020363
2011-10-03 05:44:26 51°19.575 2°55.113 17.4949 4.396401 33.62414 -3.020363
2011-10-03 05:44:31 51°19.589 2°55.134 17.4934 4.394741 33.612591 -3.020363
2011-10-03 05:44:36 51°19.602 2°55.155 17.4912 4.394741 33.612591 -3.020363
2011-10-03 05:44:41 51°19.616 2°55.175 17.4928 4.393497 33.60459 -3.020363
2011-10-03 05:44:46 51°19.63 2°55.196 17.4929 4.392148 33.594378 -3.020363
2011-10-03 05:44:51 51°19.643 2°55.216 17.4909 4.391007 33.58594 -3.020363
2011-10-03 05:44:56 51°19.657 2°55.236 17.492 4.389867 33.577502 -3.020363
2011-10-03 05:45:01 51°19.671 2°55.256 17.4882 4.388829 33.56929 -3.020363
2011-10-03 05:45:06 51°19.684 2°55.277 17.4882 4.388829 33.56929 -3.020363
2011-10-03 05:45:11 51°19.698 2°55.297 17.4891 4.387585 33.559965 -3.020363
2011-10-03 05:45:16 51°19.711 2°55.318 17.4897 4.386237 33.54909 -3.020363
2011-10-03 05:45:21 51°19.725 2°55.339 17.4899 4.384888 33.537556 -3.020363
2011-10-03 05:45:26 51°19.738 2°55.361 17.49 4.383644 33.52757 -3.020363
2011-10-03 05:45:31 51°19.75 2°55.383 17.4849 4.382192 33.515809 -3.020363
2011-10-03 05:45:36 51°19.763 2°55.405 17.4883 4.382192 33.515809 -3.020363
2011-10-03 05:45:41 51°19.774 2°55.428 17.4864 4.380118 33.498726 -3.020363
2011-10-03 05:45:46 51°19.786 2°55.452 17.4842 4.378666 33.486966 -3.020363
2011-10-03 05:45:51 51°19.797 2°55.476 17.4825 4.377421 33.476321 -3.020363
2011-10-03 05:45:56 51°19.808 2°55.5 17.4809 4.375969 33.463903 -3.020363
2011-10-03 05:46:01 51°19.819 2°55.524 17.4823 4.374102 33.447937 -3.020363
2011-10-03 05:46:05 51°19.827 2°55.544 17.4809 4.374102 33.447937 -3.020363
2011-10-03 05:46:11 51°19.839 2°55.574 17.4781 4.371821 33.428426 -3.020363
2011-10-03 05:46:16 51°19.85 2°55.599 17.4785 4.369954 33.413121 -3.020363
2011-10-03 05:46:21 51°19.86 2°55.623 17.4757 4.367465 33.393813 -3.020363
2011-10-03 05:46:26 51°19.87 2°55.648 17.4764 4.364872 33.37296 -3.020363
2011-10-03 05:46:31 51°19.881 2°55.673 17.4717 4.362487 33.353881 -3.020363
2011-10-03 05:46:36 51°19.891 2°55.698 17.472 4.362487 33.353881 -3.020363
2011-10-03 05:46:41 51°19.902 2°55.723 17.4763 4.360413 33.336805 -3.020363
2011-10-03 05:46:46 51°19.912 2°55.748 17.4707 4.358027 33.317727 -3.020363
2011-10-03 05:46:51 51°19.923 2°55.772 17.4688 4.356886 33.307975 -3.020363
2011-10-03 05:46:56 51°19.934 2°55.796 17.4679 4.354294 33.287782 -3.020363
2011-10-03 05:47:01 51°19.945 2°55.819 17.4656 4.351494 33.265159 -3.020363
2011-10-03 05:47:05 51°19.954 2°55.838 17.4665 4.351494 33.265159 -3.020363
2011-10-03 05:47:11 51°19.968 2°55.866 17.4637 4.34942 33.248742 -3.020363
2011-10-03 05:47:16 51°19.98 2°55.889 17.4601 4.347864 33.236102 -3.020363
2011-10-03 05:47:21 51°19.992 2°55.912 17.4622 4.34579 33.219686 -3.020363
2011-10-03 05:47:25 51°20.001 2°55.931 17.4603 4.343612 33.203038 -3.020363
2011-10-03 05:47:31 51°20.016 2°55.958 17.4614 4.341331 33.184849 -3.020363
2011-10-03 05:47:36 51°20.028 2°55.981 17.4561 4.341331 33.184849 -3.020363
2011-10-03 05:47:41 51°20.039 2°56.004 17.4582 4.339568 33.171091 -3.020363
2011-10-03 05:47:46 51°20.051 2°56.028 17.4527 4.337805 33.157334 -3.020363
2011-10-03 05:47:51 51°20.063 2°56.051 17.4512 4.335938 33.14269 -3.020363
2011-10-03 05:47:56 51°20.075 2°56.074 17.4494 4.334486 33.130938 -3.020363
2011-10-03 05:48:01 51°20.087 2°56.097 17.4497 4.333242 33.120958 -3.020363
2011-10-03 05:48:06 51°20.099 2°56.121 17.4476 4.333242 33.120958 -3.020363
2011-10-03 05:48:11 51°20.111 2°56.144 17.4472 4.331583 33.107434 -3.020363
2011-10-03 05:48:16 51°20.122 2°56.167 17.441 4.329612 33.092557 -3.020363
2011-10-03 05:48:21 51°20.134 2°56.19 17.4491 4.327642 33.07768 -3.020363
2011-10-03 05:48:26 51°20.146 2°56.214 17.4374 4.325775 33.063688 -3.020363
2011-10-03 05:48:31 51°20.157 2°56.237 17.4395 4.324116 33.050165 -3.020363
2011-10-03 05:48:36 51°20.169 2°56.26 17.4363 4.324116 33.050165 -3.020363
2011-10-03 05:48:41 51°20.181 2°56.284 17.4365 4.322664 33.039717 -3.020363
2011-10-03 05:48:46 51°20.193 2°56.307 17.4365 4.321213 33.028616 -3.020363
2011-10-03 05:48:51 51°20.204 2°56.331 17.4356 4.319242 33.013087 -3.020363
2011-10-03 05:48:56 51°20.216 2°56.354 17.4326 4.317894 33.002872 -3.020363
2011-10-03 05:49:01 51°20.227 2°56.378 17.4314 4.316131 32.989765 -3.020363
2011-10-03 05:49:05 51°20.236 2°56.397 17.4308 4.316131 32.989765 -3.020363
2011-10-03 05:49:11 51°20.249 2°56.426 17.4258 4.314265 32.976421 -3.020363
2011-10-03 05:49:16 51°20.26 2°56.451 17.4249 4.31302 32.967092 -3.020363
2011-10-03 05:49:21 51°20.271 2°56.475 17.4273 4.311672 32.956226 -3.020363
2011-10-03 05:49:26 51°20.282 2°56.499 17.426 4.310739 32.948904 -3.020363
2011-10-03 05:49:31 51°20.292 2°56.524 17.4216 4.309702 32.941345 -3.020363
2011-10-03 05:49:36 51°20.303 2°56.549 17.4215 4.309702 32.941345 -3.020363
2011-10-03 05:49:41 51°20.313 2°56.574 17.4238 4.308147 32.929358 -3.020363
2011-10-03 05:49:46 51°20.324 2°56.598 17.4189 4.306902 32.920027 -3.020363
2011-10-03 05:49:51 51°20.334 2°56.624 17.4124 4.30514 32.907567 -3.020363
2011-10-03 05:49:56 51°20.345 2°56.649 17.4118 4.303895 32.897586 -3.020363
2011-10-03 05:50:01 51°20.354 2°56.674 17.4085 4.302858 32.889378 -3.020363
2011-10-03 05:50:06 51°20.364 2°56.699 17.4123 4.302858 32.889378 -3.020363
2011-10-03 05:50:11 51°20.375 2°56.724 17.4098 4.301199 32.876504 -3.020363
2011-10-03 05:50:16 51°20.385 2°56.749 17.4123 4.300266 32.86983 -3.020363
2011-10-03 05:50:21 51°20.395 2°56.774 17.4091 4.299229 32.862918 -3.020363
2011-10-03 05:50:26 51°20.406 2°56.799 17.4062 4.297362 32.84892 -3.020363
2011-10-03 05:50:31 51°20.417 2°56.823 17.4013 4.295703 32.837341 -3.020363
2011-10-03 05:50:36 51°20.428 2°56.848 17.3962 4.295703 32.837341 -3.020363
2011-10-03 05:50:41 51°20.439 2°56.872 17.4006 4.294459 32.828009 -3.020363
2011-10-03 05:50:46 51°20.45 2°56.895 17.3936 4.293422 32.820447 -3.020363
2011-10-03 05:50:51 51°20.462 2°56.919 17.3926 4.292385 32.812238 -3.020363
2011-10-03 05:50:56 51°20.473 2°56.943 17.3954 4.291037 32.802019 -3.020363
2011-10-03 05:51:01 51°20.485 2°56.966 17.3945 4.289585 32.791562 -3.020363
2011-10-03 05:51:06 51°20.496 2°56.99 17.3926 4.289585 32.791562 -3.020363
2011-10-03 05:51:11 51°20.508 2°57.013 17.3883 4.287512 32.77579 -3.020363
2011-10-03 05:51:16 51°20.52 2°57.036 17.3878 4.285645 32.763082 -3.020363
2011-10-03 05:51:21 51°20.532 2°57.059 17.3907 4.283986 32.750852 -3.020363
2011-10-03 05:51:26 51°20.543 2°57.083 17.3825 4.282431 32.739506 -3.020363
2011-10-03 05:51:31 51°20.555 2°57.106 17.3877 4.281498 32.732828 -3.020363
2011-10-03 05:51:36 51°20.567 2°57.129 17.3825 4.281498 32.732828 -3.020363
2011-10-03 05:51:41 51°20.579 2°57.153 17.3845 4.280772 32.727275 -3.020363
2011-10-03 05:51:46 51°20.591 2°57.176 17.3801 4.279527 32.717939 -3.020363
2011-10-03 05:51:51 51°20.602 2°57.2 17.3777 4.278905 32.713271 -3.020363
2011-10-03 05:51:56 51°20.614 2°57.224 17.3793 4.278179 32.708364 -3.020363
2011-10-03 05:52:01 51°20.625 2°57.247 17.3742 4.277039 32.699913 -3.020363
2011-10-03 05:52:06 51°20.637 2°57.271 17.3737 4.277039 32.699913 -3.020363
2011-10-03 05:52:11 51°20.649 2°57.294 17.3753 4.276313 32.695005 -3.020363
2011-10-03 05:52:16 51°20.66 2°57.318 17.3689 4.275173 32.686554 -3.020363
2011-10-03 05:52:21 51°20.672 2°57.342 17.3691 4.274032 32.678103 -3.020363
2011-10-03 05:52:26 51°20.684 2°57.366 17.3716 4.27258 32.66764 -3.020363
2011-10-03 05:52:31 51°20.695 2°57.389 17.3726 4.271647 32.661605 -3.020363
2011-10-03 05:52:36 51°20.707 2°57.413 17.37 4.271647 32.661605 -3.020363
2011-10-03 05:52:41 51°20.719 2°57.437 17.3685 4.270507 32.653798 -3.020363
2011-10-03 05:52:46 51°20.73 2°57.462 17.3639 4.269781 32.648243 -3.020363
2011-10-03 05:52:51 51°20.74 2°57.487 17.3655 4.269055 32.643333 -3.020363
2011-10-03 05:52:56 51°20.751 2°57.512 17.3674 4.268433 32.638664 -3.020363
2011-10-03 05:53:01 51°20.761 2°57.537 17.3627 4.268018 32.635766 -3.020363
2011-10-03 05:53:05 51°20.77 2°57.557 17.3596 4.268018 32.635766 -3.020363
2011-10-03 05:53:11 51°20.782 2°57.588 17.3568 4.2675 32.631338 -3.020363
2011-10-03 05:53:16 51°20.793 2°57.613 17.3589 4.266981 32.628199 -3.020363
2011-10-03 05:53:21 51°20.803 2°57.638 17.3562 4.266048 32.621517 -3.020363
2011-10-03 05:53:26 51°20.814 2°57.663 17.3567 4.265944 32.621276 -3.020363
2011-10-03 05:53:31 51°20.824 2°57.688 17.3567 4.265841 32.621035 -3.020363
2011-10-03 05:53:36 51°20.835 2°57.713 17.3542 4.265841 32.621035 -3.020363
2011-10-03 05:53:41 51°20.846 2°57.737 17.3551 4.264804 32.614111 -3.020363
2011-10-03 05:53:46 51°20.858 2°57.761 17.3516 4.263352 32.604289 -3.020363
2011-10-03 05:53:51 51°20.869 2°57.785 17.3575 4.262834 32.601149 -3.020363
2011-10-03 05:53:56 51°20.881 2°57.808 17.354 4.262523 32.598491 -3.020363
2011-10-03 05:54:01 51°20.893 2°57.831 17.3481 4.262212 32.597123 -3.020363
2011-10-03 05:54:06 51°20.905 2°57.854 17.354 4.262212 32.597123 -3.020363
2011-10-03 05:54:11 51°20.916 2°57.877 17.3474 4.261693 32.593338 -3.020363
2011-10-03 05:54:16 51°20.929 2°57.9 17.3524 4.261071 32.588668 -3.020363
2011-10-03 05:54:21 51°20.94 2°57.924 17.3521 4.260345 32.583755 -3.020363
2011-10-03 05:54:26 51°20.952 2°57.947 17.3468 4.260345 32.583755 -3.020363
2011-10-03 05:54:31 51°20.964 2°57.971 17.3496 4.259723 32.579729 -3.020363
2011-10-03 05:54:36 51°20.975 2°57.995 17.3448 4.259723 32.579729 -3.020363
2011-10-03 05:54:41 51°20.985 2°58.02 17.346 4.258997 32.574816 -3.020363
2011-10-03 05:54:46 51°20.996 2°58.045 17.345 4.258375 32.569501 -3.020363
2011-10-03 05:54:51 51°21.006 2°58.07 17.3381 4.257857 32.56636 -3.020363
2011-10-03 05:54:56 51°21.017 2°58.095 17.3386 4.257753 32.564831 -3.020363
2011-10-03 05:55:01 51°21.027 2°58.12 17.3422 4.257131 32.56016 -3.020363
2011-10-03 05:55:06 51°21.038 2°58.145 17.3394 4.257131 32.56016 -3.020363
2011-10-03 05:55:11 51°21.048 2°58.17 17.3372 4.256509 32.555489 -3.020363
2011-10-03 05:55:16 51°21.058 2°58.195 17.3384 4.255576 32.548804 -3.020363
2011-10-03 05:55:21 51°21.069 2°58.221 17.3395 4.254539 32.54059 -3.020363
2011-10-03 05:55:26 51°21.08 2°58.246 17.3359 4.253502 32.534305 -3.020363
2011-10-03 05:55:31 51°21.09 2°58.271 17.3312 4.252776 32.528748 -3.020363
2011-10-03 05:55:36 51°21.101 2°58.296 17.3349 4.252776 32.528748 -3.020363
2011-10-03 05:55:41 51°21.111 2°58.321 17.3281 4.252362 32.525848 -3.020363
2011-10-03 05:55:46 51°21.122 2°58.346 17.3283 4.251428 32.519163 -3.020363
2011-10-03 05:55:51 51°21.133 2°58.37 17.3296 4.251117 32.517148 -3.020363
2011-10-03 05:55:56 51°21.144 2°58.394 17.3253 4.250495 32.512476 -3.020363
2011-10-03 05:56:01 51°21.155 2°58.419 17.3218 4.24977 32.507562 -3.020363
2011-10-03 05:56:06 51°21.168 2°58.442 17.319 4.24977 32.507562 -3.020363
2011-10-03 05:56:11 51°21.179 2°58.466 17.3189 4.24894 32.501761 -3.020363
2011-10-03 05:56:16 51°21.191 2°58.489 17.32 4.248214 32.497489 -3.020363
2011-10-03 05:56:21 51°21.204 2°58.512 17.3219 4.247696 32.493702 -3.020363
2011-10-03 05:56:26 51°21.216 2°58.534 17.3153 4.247177 32.491201 -3.020363
2011-10-03 05:56:31 51°21.229 2°58.557 17.3164 4.246141 32.484271 -3.020363
2011-10-03 05:56:36 51°21.242 2°58.579 17.3178 4.246141 32.484271 -3.020363
2011-10-03 05:56:41 51°21.255 2°58.601 17.3164 4.244896 32.475568 -3.020363
2011-10-03 05:56:46 51°21.268 2°58.623 17.3176 4.244171 32.471294 -3.020363
2011-10-03 05:56:51 51°21.281 2°58.645 17.3145 4.243652 32.467507 -3.020363
2011-10-03 05:56:56 51°21.294 2°58.667 17.3134 4.243341 32.465491 -3.020363
2011-10-03 05:57:01 51°21.307 2°58.689 17.3083 4.242616 32.460574 -3.020363
2011-10-03 05:57:06 51°21.32 2°58.711 17.3108 4.242616 32.460574 -3.020363
2011-10-03 05:57:11 51°21.333 2°58.733 17.31 4.242304 32.458559 -3.020363
2011-10-03 05:57:16 51°21.345 2°58.755 17.302 4.242201 32.458315 -3.020363
2011-10-03 05:57:21 51°21.358 2°58.777 17.3049 4.24189 32.456299 -3.020363
2011-10-03 05:57:25 51°21.369 2°58.795 17.3073 4.241475 32.453398 -3.020363
2011-10-03 05:57:31 51°21.384 2°58.822 17.3026 4.240749 32.44848 -3.020363
2011-10-03 05:57:36 51°21.397 2°58.844 17.3066 4.240749 32.44848 -3.020363
2011-10-03 05:57:41 51°21.409 2°58.867 17.3043 4.23992 32.442677 -3.020363
2011-10-03 05:57:46 51°21.422 2°58.89 17.3 4.239609 32.441303 -3.020363
2011-10-03 05:57:51 51°21.434 2°58.913 17.3035 4.238676 32.435255 -3.020363
2011-10-03 05:57:56 51°21.447 2°58.935 17.2992 4.238261 32.432353 -3.020363
2011-10-03 05:58:01 51°21.46 2°58.958 17.2933 4.23795 32.430337 -3.020363
2011-10-03 05:58:06 51°21.472 2°58.98 17.2933 4.23795 32.430337 -3.020363
2011-10-03 05:58:11 51°21.485 2°59.003 17.2945 4.23795 32.430337 -3.020363
2011-10-03 05:58:16 51°21.498 2°59.025 17.2907 4.238468 32.434767 -3.020363
2011-10-03 05:58:21 51°21.51 2°59.048 17.2995 4.237743 32.429206 -3.020363
2011-10-03 05:58:26 51°21.523 2°59.071 17.2897 4.237224 32.426702 -3.020363
2011-10-03 05:58:31 51°21.535 2°59.094 17.291 4.236291 32.421294 -3.020363
2011-10-03 05:58:36 51°21.547 2°59.117 17.2879 4.236291 32.421294 -3.020363
2011-10-03 05:58:41 51°21.559 2°59.14 17.286 4.235047 32.412586 -3.020363
2011-10-03 05:58:46 51°21.571 2°59.163 17.2867 4.23484 32.411456 -3.020363
2011-10-03 05:58:51 51°21.583 2°59.187 17.2824 4.234736 32.411211 -3.020363
2011-10-03 05:58:56 51°21.595 2°59.21 17.2862 4.234632 32.410967 -3.020363
2011-10-03 05:59:01 51°21.607 2°59.234 17.289 4.233906 32.406047 -3.020363
2011-10-03 05:59:06 51°21.619 2°59.257 17.282 4.233906 32.406047 -3.020363
2011-10-03 05:59:11 51°21.631 2°59.281 17.2817 4.233284 32.402013 -3.020363
2011-10-03 05:59:16 51°21.643 2°59.304 17.2829 4.232559 32.397093 -3.020363
2011-10-03 05:59:21 51°21.655 2°59.328 17.2853 4.232144 32.394831 -3.020363
2011-10-03 05:59:26 51°21.666 2°59.352 17.2815 4.231418 32.389911 -3.020363
2011-10-03 05:59:31 51°21.678 2°59.375 17.2792 4.231211 32.388138 -3.020363
2011-10-03 05:59:36 51°21.69 2°59.399 17.2807 4.231211 32.388138 -3.020363
2011-10-03 05:59:41 51°21.702 2°59.423 17.2751 4.231107 32.387252 -3.020363
2011-10-03 05:59:45 51°21.711 2°59.442 17.2728 4.230485 32.383218 -3.020363
2011-10-03 05:59:51 51°21.726 2°59.47 17.2719 4.230174 32.3812 -3.020363
2011-10-03 05:59:56 51°21.737 2°59.494 17.2724 4.230381 32.382973 -3.020363
2011-10-03 06:00:01 51°21.749 2°59.518 17.2749 4.229759 32.378297 -3.020363
2011-10-03 06:00:06 51°21.761 2°59.542 17.2741 4.229759 32.378297 -3.020363
2011-10-03 06:00:11 51°21.773 2°59.565 17.2731 4.229034 32.373376 -3.020363
2011-10-03 06:00:16 51°21.785 2°59.589 17.2731 4.2281 32.367964 -3.020363
2011-10-03 06:00:21 51°21.797 2°59.612 17.2727 4.227167 32.361911 -3.020363
2011-10-03 06:00:26 51°21.809 2°59.635 17.2748 4.226753 32.359006 -3.020363
2011-10-03 06:00:31 51°21.822 2°59.658 17.2776 4.226545 32.358516 -3.020363
2011-10-03 06:00:36 51°21.834 2°59.682 17.271 4.226545 32.358516 -3.020363
2011-10-03 06:00:41 51°21.846 2°59.706 17.2744 4.226338 32.356743 -3.020363
2011-10-03 06:00:46 51°21.857 2°59.73 17.2719 4.226234 32.355857 -3.020363
2011-10-03 06:00:51 51°21.869 2°59.754 17.2706 4.226131 32.355612 -3.020363
2011-10-03 06:00:56 51°21.881 2°59.778 17.2742 4.225923 32.353839 -3.020363
2011-10-03 06:01:01 51°21.892 2°59.802 17.2668 4.226338 32.356743 -3.020363
2011-10-03 06:01:06 51°21.904 2°59.826 17.273 4.226338 32.356743 -3.020363
2011-10-03 06:01:11 51°21.916 2°59.851 17.27 4.226545 32.357875 -3.020363
2011-10-03 06:01:16 51°21.927 2°59.875 17.2711 4.226338 32.356102 -3.020363
2011-10-03 06:01:21 51°21.938 2°59.9 17.2753 4.225923 32.35448 -3.020363
2011-10-03 06:01:26 51°21.949 2°59.926 17.2802 4.225923 32.35448 -3.020363
2011-10-03 06:01:31 51°21.959 2°59.951 17.277 4.225923 32.35448 -3.020363
2011-10-03 06:01:36 51°21.969 2°59.977 17.2733 4.225923 32.35448 -3.020363
2011-10-03 06:01:41 51°21.979 3°0.003 17.267 4.225612 32.352462 -3.020363
2011-10-03 06:01:45 51°21.988 3°0.023 17.2667 4.225716 32.353348 -3.020363
2011-10-03 06:01:51 51°22 3°0.054 17.2686 4.225716 32.352707 -3.020363
2011-10-03 06:01:56 51°22.012 3°0.079 17.2702 4.225923 32.353839 -3.020363
2011-10-03 06:02:01 51°22.021 3°0.106 17.2674 4.226753 32.358365 -3.020363
2011-10-03 06:02:05 51°22.03 3°0.126 17.2643 4.226753 32.358365 -3.020363
2011-10-03 06:02:11 51°22.042 3°0.157 17.269 4.226753 32.359006 -3.020363
2011-10-03 06:02:16 51°22.053 3°0.183 17.2644 4.22582 32.353594 -3.020363
2011-10-03 06:02:21 51°22.063 3°0.208 17.2631 4.224887 32.347539 -3.020363
2011-10-03 06:02:25 51°22.072 3°0.228 17.2672 4.224887 32.347539 -3.020363
2011-10-03 06:02:31 51°22.085 3°0.259 17.2634 4.224783 32.346653 -3.020363
2011-10-03 06:02:36 51°22.097 3°0.283 17.2629 4.224783 32.346653 -3.020363
2011-10-03 06:02:41 51°22.108 3°0.308 17.2688 4.224264 32.343503 -3.020363
2011-10-03 06:02:45 51°22.118 3°0.327 17.2655 4.223953 32.342125 -3.020363
2011-10-03 06:02:51 51°22.133 3°0.355 17.2735 4.223435 32.338334 -3.020363
2011-10-03 06:02:56 51°22.145 3°0.379 17.266 4.223124 32.336957 -3.020363
2011-10-03 06:03:01 51°22.157 3°0.403 17.2652 4.223228 32.337202 -3.020363
2011-10-03 06:03:06 51°22.169 3°0.426 17.2729 4.223228 32.337202 -3.020363
2011-10-03 06:03:11 51°22.181 3°0.45 17.2675 4.223124 32.336957 -3.020363
2011-10-03 06:03:16 51°22.193 3°0.474 17.2686 4.22302 32.33607 -3.020363
2011-10-03 06:03:21 51°22.205 3°0.498 17.2646 4.223124 32.336316 -3.020363
2011-10-03 06:03:26 51°22.217 3°0.522 17.2608 4.223539 32.33858 -3.020363
2011-10-03 06:03:31 51°22.228 3°0.547 17.2635 4.223435 32.338334 -3.020363
2011-10-03 06:03:36 51°22.239 3°0.572 17.2616 4.223435 32.338334 -3.020363
2011-10-03 06:03:41 51°22.25 3°0.597 17.2596 4.223435 32.337693 -3.020363
2011-10-03 06:03:46 51°22.26 3°0.623 17.2626 4.223642 32.338825 -3.020363
2011-10-03 06:03:51 51°22.271 3°0.649 17.2704 4.223331 32.336807 -3.020363
2011-10-03 06:03:56 51°22.282 3°0.674 17.2647 4.22302 32.334789 -3.020363
2011-10-03 06:04:01 51°22.292 3°0.7 17.2634 4.222606 32.332525 -3.020363
2011-10-03 06:04:06 51°22.303 3°0.726 17.2642 4.222606 32.332525 -3.020363
2011-10-03 06:04:11 51°22.313 3°0.752 17.2597 4.222398 32.331392 -3.020363
2011-10-03 06:04:16 51°22.323 3°0.777 17.2586 4.221984 32.328487 -3.020363
2011-10-03 06:04:21 51°22.334 3°0.803 17.2622 4.221984 32.328487 -3.020363
2011-10-03 06:04:25 51°22.342 3°0.824 17.262 4.222502 32.332279 -3.020363
2011-10-03 06:04:31 51°22.355 3°0.855 17.2622 4.222398 32.331392 -3.020363
2011-10-03 06:04:36 51°22.366 3°0.88 17.2661 4.222398 32.331392 -3.020363
2011-10-03 06:04:41 51°22.376 3°0.906 17.2621 4.222087 32.328733 -3.020363
2011-10-03 06:04:46 51°22.387 3°0.931 17.2601 4.221673 32.326469 -3.020363
2011-10-03 06:04:51 51°22.397 3°0.957 17.2609 4.221258 32.323564 -3.020363
2011-10-03 06:04:56 51°22.407 3°0.983 17.2649 4.221154 32.322677 -3.020363
2011-10-03 06:05:01 51°22.418 3°1.008 17.2619 4.221154 32.322677 -3.020363
2011-10-03 06:05:06 51°22.43 3°1.032 17.259 4.221154 32.322677 -3.020363
2011-10-03 06:05:11 51°22.442 3°1.056 17.257 4.221258 32.322923 -3.020363
2011-10-03 06:05:16 51°22.453 3°1.08 17.261 4.221154 32.322037 -3.020363
2011-10-03 06:05:21 51°22.466 3°1.104 17.2632 4.22105 32.32115 -3.020363
2011-10-03 06:05:26 51°22.477 3°1.129 17.2601 4.220843 32.319378 -3.020363
2011-10-03 06:05:31 51°22.489 3°1.153 17.2585 4.220843 32.319378 -3.020363
2011-10-03 06:05:36 51°22.501 3°1.177 17.26 4.220843 32.319378 -3.020363
2011-10-03 06:05:41 51°22.512 3°1.202 17.2632 4.220428 32.317113 -3.020363
2011-10-03 06:05:46 51°22.523 3°1.227 17.2704 4.21991 32.313321 -3.020363
2011-10-03 06:05:51 51°22.534 3°1.252 17.2663 4.21991 32.313321 -3.020363
2011-10-03 06:05:56 51°22.545 3°1.278 17.2649 4.219806 32.311795 -3.020363
2011-10-03 06:06:01 51°22.556 3°1.303 17.2657 4.219599 32.310662 -3.020363
2011-10-03 06:06:06 51°22.567 3°1.328 17.2685 4.219599 32.310662 -3.020363
2011-10-03 06:06:11 51°22.578 3°1.354 17.2662 4.219392 32.308889 -3.020363
2011-10-03 06:06:16 51°22.589 3°1.379 17.2657 4.219392 32.308249 -3.020363
2011-10-03 06:06:21 51°22.6 3°1.404 17.2627 4.21991 32.31076 -3.020363
2011-10-03 06:06:25 51°22.609 3°1.424 17.2675 4.220428 32.313911 -3.020363
2011-10-03 06:06:31 51°22.622 3°1.455 17.2641 4.220325 32.312384 -3.020363
2011-10-03 06:06:36 51°22.633 3°1.48 17.2703 4.220325 32.312384 -3.020363
2011-10-03 06:06:41 51°22.644 3°1.505 17.267 4.220532 32.313517 -3.020363
2011-10-03 06:06:46 51°22.655 3°1.53 17.2658 4.220532 32.313517 -3.020363
2011-10-03 06:06:51 51°22.666 3°1.556 17.266 4.220221 32.311498 -3.020363
2011-10-03 06:06:56 51°22.677 3°1.581 17.2653 4.220014 32.310366 -3.020363
2011-10-03 06:07:01 51°22.688 3°1.606 17.263 4.220014 32.310366 -3.020363
2011-10-03 06:07:06 51°22.699 3°1.632 17.2631 4.220014 32.310366 -3.020363
2011-10-03 06:07:11 51°22.71 3°1.657 17.2634 4.220117 32.310612 -3.020363
2011-10-03 06:07:16 51°22.721 3°1.682 17.2655 4.220221 32.311498 -3.020363
2011-10-03 06:07:21 51°22.732 3°1.707 17.2617 4.220221 32.310858 -3.020363
2011-10-03 06:07:26 51°22.744 3°1.732 17.2605 4.220221 32.310858 -3.020363
2011-10-03 06:07:31 51°22.755 3°1.756 17.2613 4.220325 32.311744 -3.020363
2011-10-03 06:07:36 51°22.767 3°1.78 17.2588 4.220325 32.311744 -3.020363
2011-10-03 06:07:41 51°22.779 3°1.804 17.2613 4.220014 32.309726 -3.020363
2011-10-03 06:07:46 51°22.792 3°1.827 17.2647 4.218251 32.295299 -3.020363
2011-10-03 06:07:51 51°22.804 3°1.85 17.2622 4.218251 32.295939 -3.020363
2011-10-03 06:07:56 51°22.817 3°1.873 17.2676 4.21794 32.29392 -3.020363
2011-10-03 06:08:01 51°22.83 3°1.896 17.2595 4.219288 32.306722 -3.020363
2011-10-03 06:08:05 51°22.84 3°1.915 17.2592 4.219288 32.306722 -3.020363
2011-10-03 06:08:11 51°22.855 3°1.943 17.2628 4.219081 32.30623 -3.020363
2011-10-03 06:08:16 51°22.867 3°1.965 17.2644 4.218977 32.305344 -3.020363
2011-10-03 06:08:21 51°22.88 3°1.988 17.2615 4.219495 32.308495 -3.020363
2011-10-03 06:08:26 51°22.893 3°2.011 17.2695 4.219599 32.308741 -3.020363
2011-10-03 06:08:31 51°22.905 3°2.034 17.2629 4.219806 32.309874 -3.020363
2011-10-03 06:08:36 51°22.917 3°2.057 17.2581 4.219806 32.309874 -3.020363
2011-10-03 06:08:41 51°22.93 3°2.08 17.2616 4.219703 32.310268 -3.020363
2011-10-03 06:08:46 51°22.942 3°2.104 17.2623 4.219599 32.310022 -3.020363
2011-10-03 06:08:51 51°22.954 3°2.127 17.2676 4.220014 32.312287 -3.020363
2011-10-03 06:08:56 51°22.965 3°2.151 17.2701 4.220221 32.313419 -3.020363
2011-10-03 06:09:01 51°22.977 3°2.175 17.2672 4.220739 32.31721 -3.020363
2011-10-03 06:09:06 51°22.988 3°2.2 17.2624 4.220739 32.31721 -3.020363
2011-10-03 06:09:11 51°22.999 3°2.226 17.2647 4.220636 32.316964 -3.020363
2011-10-03 06:09:16 51°23.01 3°2.251 17.2653 4.220428 32.315832 -3.020363
2011-10-03 06:09:21 51°23.021 3°2.277 17.2672 4.220739 32.317851 -3.020363
2011-10-03 06:09:26 51°23.031 3°2.302 17.2655 4.221361 32.321888 -3.020363
2011-10-03 06:09:31 51°23.042 3°2.328 17.2653 4.22188 32.324398 -3.020363
2011-10-03 06:09:36 51°23.052 3°2.353 17.266 4.22188 32.324398 -3.020363
2011-10-03 06:09:41 51°23.063 3°2.379 17.2639 4.221776 32.324152 -3.020363
2011-10-03 06:09:46 51°23.074 3°2.404 17.2664 4.221776 32.324793 -3.020363
2011-10-03 06:09:51 51°23.085 3°2.429 17.2629 4.22188 32.32632 -3.020363
2011-10-03 06:09:56 51°23.095 3°2.454 17.2652 4.222191 32.328338 -3.020363
2011-10-03 06:10:01 51°23.106 3°2.479 17.2626 4.222295 32.329865 -3.020363
2011-10-03 06:10:06 51°23.117 3°2.504 17.2609 4.222295 32.329865 -3.020363
2011-10-03 06:10:11 51°23.128 3°2.529 17.2628 4.222502 32.330997 -3.020363
2011-10-03 06:10:16 51°23.139 3°2.554 17.2671 4.222502 32.331638 -3.020363
2011-10-03 06:10:21 51°23.15 3°2.579 17.2671 4.222606 32.332525 -3.020363
2011-10-03 06:10:25 51°23.159 3°2.599 17.2679 4.222813 32.334297 -3.020363
2011-10-03 06:10:31 51°23.172 3°2.628 17.2627 4.22302 32.33607 -3.020363
2011-10-03 06:10:36 51°23.183 3°2.653 17.2617 4.22302 32.33607 -3.020363
2011-10-03 06:10:41 51°23.194 3°2.678 17.2618 4.222813 32.335579 -3.020363
2011-10-03 06:10:46 51°23.205 3°2.703 17.2613 4.22302 32.337352 -3.020363
2011-10-03 06:10:51 51°23.216 3°2.727 17.269 4.223539 32.341143 -3.020363
2011-10-03 06:10:56 51°23.227 3°2.752 17.2765 4.223746 32.342275 -3.020363
2011-10-03 06:11:01 51°23.238 3°2.777 17.2614 4.22385 32.343162 -3.020363
2011-10-03 06:11:06 51°23.249 3°2.802 17.2661 4.22385 32.343162 -3.020363
2011-10-03 06:11:11 51°23.26 3°2.826 17.2599 4.22385 32.344443 -3.020363
2011-10-03 06:11:16 51°23.271 3°2.85 17.26 4.22385 32.345084 -3.020363
2011-10-03 06:11:21 51°23.282 3°2.874 17.2607 4.224057 32.346857 -3.020363
2011-10-03 06:11:26 51°23.295 3°2.897 17.2549 4.224887 32.351385 -3.020363
2011-10-03 06:11:31 51°23.307 3°2.92 17.2581 4.225405 32.354535 -3.020363
2011-10-03 06:11:36 51°23.319 3°2.943 17.2578 4.225405 32.354535 -3.020363
2011-10-03 06:11:41 51°23.332 3°2.966 17.2572 4.225405 32.355817 -3.020363
2011-10-03 06:11:46 51°23.344 3°2.989 17.2606 4.225198 32.355327 -3.020363
2011-10-03 06:11:51 51°23.357 3°3.012 17.2594 4.224887 32.35395 -3.020363
2011-10-03 06:11:56 51°23.369 3°3.035 17.2607 4.224783 32.354987 -3.020363
2011-10-03 06:12:01 51°23.382 3°3.058 17.2581 4.224679 32.354741 -3.020363
2011-10-03 06:12:06 51°23.394 3°3.081 17.2633 4.224679 32.354741 -3.020363
2011-10-03 06:12:11 51°23.406 3°3.105 17.2626 4.224679 32.355383 -3.020363
2011-10-03 06:12:16 51°23.417 3°3.129 17.2591 4.224783 32.356269 -3.020363
2011-10-03 06:12:21 51°23.429 3°3.153 17.2711 4.22499 32.358042 -3.020363
2011-10-03 06:12:25 51°23.438 3°3.172 17.2664 4.225198 32.359816 -3.020363
2011-10-03 06:12:31 51°23.451 3°3.202 17.266 4.225509 32.361834 -3.020363
2011-10-03 06:12:36 51°23.462 3°3.227 17.2705 4.225509 32.361834 -3.020363
2011-10-03 06:12:41 51°23.472 3°3.252 17.269 4.22582 32.363853 -3.020363
2011-10-03 06:12:46 51°23.483 3°3.276 17.2657 4.226027 32.365626 -3.020363
2011-10-03 06:12:51 51°23.494 3°3.301 17.2615 4.226338 32.367644 -3.020363
2011-10-03 06:12:56 51°23.505 3°3.326 17.2607 4.227064 32.372568 -3.020363
2011-10-03 06:13:01 51°23.517 3°3.349 17.2612 4.227686 32.375963 -3.020363
2011-10-03 06:13:06 51°23.528 3°3.373 17.262 4.227686 32.375963 -3.020363
2011-10-03 06:13:11 51°23.541 3°3.395 17.2607 4.228101 32.378867 -3.020363
2011-10-03 06:13:16 51°23.553 3°3.417 17.2614 4.228723 32.382262 -3.020363
2011-10-03 06:13:21 51°23.566 3°3.439 17.2621 4.228723 32.382903 -3.020363
2011-10-03 06:13:26 51°23.58 3°3.46 17.2684 4.228101 32.380151 -3.020363
2011-10-03 06:13:31 51°23.593 3°3.481 17.2762 4.227997 32.380547 -3.020363
2011-10-03 06:13:36 51°23.607 3°3.501 17.2747 4.227997 32.380547 -3.020363
2011-10-03 06:13:41 51°23.62 3°3.522 17.2646 4.228101 32.382076 -3.020363
2011-10-03 06:13:46 51°23.634 3°3.543 17.2661 4.228101 32.382076 -3.020363
2011-10-03 06:13:51 51°23.647 3°3.564 17.2598 4.228204 32.382962 -3.020363
2011-10-03 06:13:56 51°23.66 3°3.585 17.2639 4.228308 32.383207 -3.020363
2011-10-03 06:14:01 51°23.673 3°3.607 17.2642 4.229138 32.388375 -3.020363
2011-10-03 06:14:06 51°23.686 3°3.629 17.2665 4.229138 32.388375 -3.020363
2011-10-03 06:14:11 51°23.699 3°3.651 17.273 4.229967 32.392901 -3.020363
2011-10-03 06:14:17 51°23.715 3°3.678 17.2637 4.229967 32.392901 -3.020363
2011-10-03 06:14:21 51°23.725 3°3.696 17.2689 4.22976 32.392411 -3.020363
2011-10-03 06:14:25 51°23.735 3°3.713 17.2691 4.229552 32.391922 -3.020363
2011-10-03 06:14:31 51°23.751 3°3.74 17.2652 4.229656 32.39345 -3.020363
2011-10-03 06:14:36 51°23.764 3°3.761 17.2622 4.229656 32.39345 -3.020363
2011-10-03 06:14:41 51°23.777 3°3.783 17.2648 4.22976 32.393695 -3.020363
2011-10-03 06:14:46 51°23.79 3°3.805 17.2654 4.230278 32.396844 -3.020363
2011-10-03 06:14:51 51°23.803 3°3.827 17.267 4.230589 32.398862 -3.020363
2011-10-03 06:14:56 51°23.815 3°3.85 17.2755 4.230796 32.400636 -3.020363
2011-10-03 06:15:01 51°23.828 3°3.873 17.2705 4.231004 32.402409 -3.020363
2011-10-03 06:15:06 51°23.84 3°3.895 17.2677 4.231004 32.402409 -3.020363
2011-10-03 06:15:11 51°23.853 3°3.918 17.2683 4.220532 32.312876 -3.020363
2011-10-03 06:15:16 51°23.865 3°3.94 17.2708 4.2309 32.402806 -3.020363
2011-10-03 06:15:21 51°23.878 3°3.963 17.2693 4.231107 32.403938 -3.020363
2011-10-03 06:15:26 51°23.891 3°3.984 17.2709 4.231729 32.407973 -3.020363
2011-10-03 06:15:31 51°23.904 3°4.006 17.275 4.232559 32.41314 -3.020363
2011-10-03 06:15:36 51°23.917 3°4.027 17.274 4.232559 32.41314 -3.020363
2011-10-03 06:15:41 51°23.93 3°4.049 17.2763 4.232766 32.414913 -3.020363
2011-10-03 06:15:46 51°23.942 3°4.072 17.2701 4.23287 32.417084 -3.020363
2011-10-03 06:15:51 51°23.955 3°4.094 17.2688 4.233077 32.418858 -3.020363
2011-10-03 06:15:56 51°23.967 3°4.117 17.273 4.233388 32.420875 -3.020363
2011-10-03 06:16:01 51°23.98 3°4.139 17.2793 4.233803 32.42378 -3.020363
2011-10-03 06:16:06 51°23.992 3°4.162 17.2706 4.233803 32.42378 -3.020363
2011-10-03 06:16:11 51°24.004 3°4.185 17.2745 4.234425 32.427815 -3.020363
2011-10-03 06:16:16 51°24.015 3°4.209 17.2689 4.235047 32.432492 -3.020363
2011-10-03 06:16:21 51°24.027 3°4.233 17.2675 4.235358 32.43451 -3.020363
2011-10-03 06:16:25 51°24.035 3°4.252 17.2683 4.235358 32.435795 -3.020363
2011-10-03 06:16:31 51°24.048 3°4.282 17.2726 4.235773 32.438699 -3.020363
2011-10-03 06:16:36 51°24.058 3°4.308 17.2672 4.235773 32.438699 -3.020363
2011-10-03 06:16:41 51°24.068 3°4.333 17.2768 4.236084 32.441359 -3.020363
2011-10-03 06:16:46 51°24.078 3°4.358 17.2799 4.236291 32.443133 -3.020363
2011-10-03 06:16:51 51°24.087 3°4.384 17.2731 4.236499 32.445549 -3.020363
2011-10-03 06:16:56 51°24.097 3°4.409 17.2705 4.236499 32.447478 -3.020363
2011-10-03 06:17:01 51°24.106 3°4.435 17.2703 4.236706 32.448608 -3.020363
2011-10-03 06:17:06 51°24.116 3°4.461 17.2714 4.236706 32.448608 -3.020363
2011-10-03 06:17:11 51°24.125 3°4.486 17.2649 4.237121 32.452155 -3.020363
2011-10-03 06:17:16 51°24.135 3°4.512 17.2694 4.237847 32.456434 -3.020363
2011-10-03 06:17:21 51°24.145 3°4.537 17.2744 4.238572 32.461998 -3.020363
2011-10-03 06:17:26 51°24.155 3°4.562 17.2716 4.238884 32.464015 -3.020363
2011-10-03 06:17:31 51°24.166 3°4.587 17.2667 4.238987 32.466189 -3.020363
2011-10-03 06:17:36 51°24.176 3°4.612 17.2716 4.238987 32.466189 -3.020363
2011-10-03 06:17:41 51°24.186 3°4.637 17.275 4.239091 32.467719 -3.020363
2011-10-03 06:17:46 51°24.197 3°4.661 17.2668 4.239195 32.469892 -3.020363
2011-10-03 06:17:51 51°24.207 3°4.686 17.2674 4.239506 32.472553 -3.020363
2011-10-03 06:17:56 51°24.217 3°4.711 17.2654 4.239817 32.475214 -3.020363
2011-10-03 06:18:01 51°24.228 3°4.736 17.2656 4.240231 32.478761 -3.020363
2011-10-03 06:18:05 51°24.236 3°4.755 17.2617 4.240231 32.478761 -3.020363
2011-10-03 06:18:11 51°24.249 3°4.785 17.2676 4.240646 32.482309 -3.020363
2011-10-03 06:18:16 51°24.259 3°4.81 17.2698 4.241165 32.485456 -3.020363
2011-10-03 06:18:21 51°24.269 3°4.835 17.2655 4.241476 32.488761 -3.020363
2011-10-03 06:18:25 51°24.277 3°4.854 17.2625 4.241579 32.490291 -3.020363
2011-10-03 06:18:31 51°24.29 3°4.884 17.26 4.241579 32.492223 -3.020363
2011-10-03 06:18:36 51°24.3 3°4.908 17.2635 4.241579 32.492223 -3.020363
2011-10-03 06:18:41 51°24.311 3°4.932 17.2583 4.241787 32.494641 -3.020363
2011-10-03 06:18:45 51°24.32 3°4.951 17.2577 4.242201 32.498189 -3.020363
2011-10-03 06:18:51 51°24.333 3°4.98 17.2595 4.242616 32.501737 -3.020363
2011-10-03 06:18:56 51°24.345 3°5.003 17.2584 4.242927 32.505043 -3.020363
2011-10-03 06:19:01 51°24.356 3°5.026 17.2545 4.242927 32.506331 -3.020363
2011-10-03 06:19:06 51°24.368 3°5.049 17.2579 4.242927 32.506331 -3.020363
2011-10-03 06:19:11 51°24.38 3°5.071 17.2521 4.243031 32.508507 -3.020363
2011-10-03 06:19:16 51°24.392 3°5.093 17.2505 4.243135 32.510038 -3.020363
2011-10-03 06:19:21 51°24.404 3°5.116 17.2517 4.243342 32.512457 -3.020363
2011-10-03 06:19:26 51°24.415 3°5.139 17.2518 4.243446 32.514633 -3.020363
2011-10-03 06:19:31 51°24.427 3°5.162 17.2518 4.243549 32.516165 -3.020363
2011-10-03 06:19:36 51°24.439 3°5.185 17.2539 4.243549 32.516165 -3.020363
2011-10-03 06:19:41 51°24.45 3°5.208 17.2584 4.243653 32.518341 -3.020363
2011-10-03 06:19:46 51°24.462 3°5.232 17.2533 4.243861 32.52076 -3.020363
2011-10-03 06:19:51 51°24.473 3°5.256 17.2593 4.243757 32.521162 -3.020363
2011-10-03 06:19:56 51°24.483 3°5.28 17.2549 4.243757 32.522452 -3.020363
2011-10-03 06:20:01 51°24.494 3°5.305 17.2562 4.243964 32.524227 -3.020363
2011-10-03 06:20:06 51°24.504 3°5.33 17.249 4.243964 32.524227 -3.020363
2011-10-03 06:20:11 51°24.515 3°5.354 17.2541 4.15356 31.751199 -3.020363
2011-10-03 06:20:16 51°24.525 3°5.379 17.2488 4.243446 32.517856 -3.020363
2011-10-03 06:20:21 51°24.535 3°5.403 17.2564 4.243964 32.521648 -3.020363
2011-10-03 06:20:25 51°24.544 3°5.423 17.2531 4.244379 32.524553 -3.020363
2011-10-03 06:20:31 51°24.556 3°5.453 17.2464 4.244379 32.524553 -3.020363
2011-10-03 06:20:36 51°24.566 3°5.478 17.2451 4.244379 32.525197 -3.020363
2011-10-03 06:20:41 51°24.576 3°5.502 17.2426 4.244275 32.524955 -3.020363
2011-10-03 06:20:46 51°24.587 3°5.527 17.239 4.244275 32.526244 -3.020363
2011-10-03 06:20:51 51°24.598 3°5.551 17.2416 4.244275 32.527534 -3.020363
2011-10-03 06:20:56 51°24.608 3°5.576 17.2403 4.244483 32.528664 -3.020363
2011-10-03 06:21:01 51°24.619 3°5.601 17.2443 4.24469 32.531084 -3.020363
2011-10-03 06:21:06 51°24.629 3°5.625 17.2423 4.24469 32.531084 -3.020363
2011-10-03 06:21:11 51°24.64 3°5.65 17.2454 4.244586 32.532131 -3.020363
2011-10-03 06:21:16 51°24.651 3°5.674 17.2413 4.244483 32.533179 -3.020363
2011-10-03 06:21:21 51°24.661 3°5.699 17.2401 4.244379 32.533581 -3.020363
2011-10-03 06:21:26 51°24.672 3°5.724 17.2379 4.24469 32.537534 -3.020363
2011-10-03 06:21:31 51°24.682 3°5.748 17.2364 4.244898 32.53931 -3.020363
2011-10-03 06:21:36 51°24.693 3°5.773 17.2347 4.244898 32.53931 -3.020363
2011-10-03 06:21:41 51°24.704 3°5.798 17.2338 4.245001 32.540843 -3.020363
2011-10-03 06:21:46 51°24.714 3°5.822 17.2342 4.245209 32.542618 -3.020363
2011-10-03 06:21:51 51°24.725 3°5.847 17.2339 4.245209 32.542618 -3.020363
2011-10-03 06:21:56 51°24.736 3°5.871 17.2327 4.245312 32.544151 -3.020363
2011-10-03 06:22:01 51°24.747 3°5.895 17.2289 4.245312 32.546087 -3.020363
2011-10-03 06:22:05 51°24.757 3°5.914 17.23 4.245312 32.546087 -3.020363
2011-10-03 06:22:11 51°24.771 3°5.942 17.2258 4.245105 32.545603 -3.020363
2011-10-03 06:22:16 51°24.783 3°5.965 17.2286 4.245105 32.546248 -3.020363
2011-10-03 06:22:21 51°24.795 3°5.988 17.2311 4.245105 32.547539 -3.020363
2011-10-03 06:22:25 51°24.804 3°6.006 17.2228 4.245105 32.548185 -3.020363
2011-10-03 06:22:31 51°24.819 3°6.034 17.2214 4.245105 32.549476 -3.020363
2011-10-03 06:22:36 51°24.831 3°6.056 17.2205 4.245105 32.549476 -3.020363
2011-10-03 06:22:41 51°24.843 3°6.08 17.217 4.245105 32.550768 -3.020363
2011-10-03 06:22:45 51°24.853 3°6.098 17.2216 4.245105 32.552059 -3.020363
2011-10-03 06:22:51 51°24.867 3°6.126 17.2151 4.245209 32.553593 -3.020363
2011-10-03 06:22:56 51°24.878 3°6.149 17.2203 4.245416 32.555369 -3.020363
2011-10-03 06:23:01 51°24.89 3°6.173 17.2167 4.24552 32.558194 -3.020363
2011-10-03 06:23:06 51°24.901 3°6.197 17.2164 4.24552 32.558194 -3.020363
2011-10-03 06:23:11 51°24.912 3°6.222 17.2153 4.24552 32.560132 -3.020363
2011-10-03 06:23:16 51°24.922 3°6.247 17.2061 4.245727 32.563201 -3.020363
2011-10-03 06:23:21 51°24.933 3°6.272 17.204 4.246142 32.5674 -3.020363
2011-10-03 06:23:26 51°24.943 3°6.297 17.2026 4.246557 32.571599 -3.020363
2011-10-03 06:23:31 51°24.954 3°6.322 17.2011 4.247283 32.578463 -3.020363
2011-10-03 06:23:36 51°24.964 3°6.348 17.2017 4.247283 32.578463 -3.020363
2011-10-03 06:23:41 51°24.974 3°6.373 17.2009 4.247905 32.584439 -3.020363
2011-10-03 06:23:46 51°24.985 3°6.398 17.2005 4.24832 32.590579 -3.020363
2011-10-03 06:23:51 51°24.995 3°6.423 17.199 4.248527 32.594944 -3.020363
2011-10-03 06:23:56 51°25.006 3°6.448 17.1967 4.248734 32.598662 -3.020363
2011-10-03 06:24:01 51°25.016 3°6.474 17.197 4.248942 32.60238 -3.020363
2011-10-03 06:24:05 51°25.025 3°6.494 17.1974 4.248942 32.60238 -3.020363
2011-10-03 06:24:11 51°25.037 3°6.524 17.1976 4.249046 32.605211 -3.020363
2011-10-03 06:24:16 51°25.048 3°6.549 17.2007 4.249253 32.607635 -3.020363
2011-10-03 06:24:21 51°25.058 3°6.574 17.1961 4.249564 32.610949 -3.020363
2011-10-03 06:24:25 51°25.067 3°6.594 17.195 4.249771 32.614021 -3.020363
2011-10-03 06:24:31 51°25.08 3°6.624 17.1887 4.249875 32.616205 -3.020363
2011-10-03 06:24:36 51°25.09 3°6.649 17.1965 4.249875 32.616205 -3.020363
2011-10-03 06:24:41 51°25.101 3°6.674 17.199 4.250082 32.619278 -3.020363
2011-10-03 06:24:46 51°25.112 3°6.698 17.1908 4.25029 32.621704 -3.020363
2011-10-03 06:24:51 51°25.123 3°6.722 17.1899 4.250705 32.624611 -3.020363
2011-10-03 06:24:56 51°25.134 3°6.747 17.1883 4.251016 32.627926 -3.020363
2011-10-03 06:25:01 51°25.146 3°6.771 17.1871 4.251223 32.631647 -3.020363
2011-10-03 06:25:06 51°25.158 3°6.794 17.1868 4.251223 32.631647 -3.020363
2011-10-03 06:25:11 51°25.17 3°6.817 17.1883 4.251534 32.634962 -3.020363
2011-10-03 06:25:16 51°25.182 3°6.84 17.1837 4.252053 32.638759 -3.020363
2011-10-03 06:25:21 51°25.194 3°6.863 17.1857 4.252467 32.643612 -3.020363
2011-10-03 06:25:26 51°25.207 3°6.886 17.1826 4.252882 32.648465 -3.020363
2011-10-03 06:25:31 51°25.219 3°6.909 17.1829 4.253297 32.653318 -3.020363
2011-10-03 06:25:36 51°25.231 3°6.932 17.1833 4.253297 32.653318 -3.020363
2011-10-03 06:25:41 51°25.243 3°6.955 17.1789 4.253815 32.658412 -3.020363
2011-10-03 06:25:46 51°25.255 3°6.978 17.1782 4.254334 32.664156 -3.020363
2011-10-03 06:25:51 51°25.266 3°7.002 17.1799 4.254748 32.668362 -3.020363
2011-10-03 06:25:56 51°25.278 3°7.027 17.1786 4.255163 32.672568 -3.020363
2011-10-03 06:26:01 51°25.289 3°7.051 17.1826 4.255682 32.678312 -3.020363
2011-10-03 06:26:06 51°25.299 3°7.076 17.177 4.255682 32.678312 -3.020363
2011-10-03 06:26:11 51°25.309 3°7.101 17.1767 4.256096 32.682519 -3.020363
2011-10-03 06:26:16 51°25.32 3°7.127 17.1823 4.256615 32.687615 -3.020363
2011-10-03 06:26:21 51°25.329 3°7.153 17.1804 4.25703 32.692472 -3.020363
2011-10-03 06:26:25 51°25.337 3°7.173 17.182 4.257548 32.696919 -3.020363
2011-10-03 06:26:31 51°25.349 3°7.205 17.1791 4.257963 32.700477 -3.020363